<?xml version="1.0" encoding="UTF-8" standalone="no" ?>
<gpx xmlns="http://www.topografix.com/GPX/1/1" xmlns:xsi="http://www.w3.org/2001/XMLSchema-instance" xsi:schemaLocation="http://www.topografix.com/GPX/1/1 http://www.topografix.com/GPX/1/1/gpx.xsd" version="1.1" creator="VisuGPX - https://www.visugpx.com">
  <metadata>
    <name>Devoluy : Tete du TOURNEAU  (traversée du Col du Noyer au Col la Saume)</name>
    <desc><![CDATA[La randonnée démarre d'une petite aire de piquenique au km 14 de la route du col du Noyer. Au col (refuge napoléon), on ira jusqu'à la table d 'orientation.
Montée raide vers la tête de Tourneau , meilleure quand on a rejoint l'arête ouest.
On suivra la crête vers le nord-Est, passant près de la croix de la Saume avant de rejoindre le col.
Retour agréable par la piste herbeuse balisée GR . Final par la petite route jusqu'au point de départ.

[url=https://bd-rando.blogspot.com/2020/08/devoluy-tete-du-tourneau.html]voir rando[/url]

]]></desc>
  </metadata>
  <trk>
    <name><![CDATA[Tete DU TOURNEAU   11:16:45]]></name>
    <trkseg>
      <trkpt lat="44.69682" lon="5.96487">
        <ele>1526.515</ele>
        <time>2020-08-26T06:27:34Z</time>
      </trkpt>
      <trkpt lat="44.69682" lon="5.96487">
        <ele>1526.498</ele>
        <time>2020-08-26T06:27:35Z</time>
      </trkpt>
      <trkpt lat="44.69683" lon="5.96487">
        <ele>1526.454</ele>
        <time>2020-08-26T06:27:38Z</time>
      </trkpt>
      <trkpt lat="44.69683" lon="5.96487">
        <ele>1526.448</ele>
        <time>2020-08-26T06:27:39Z</time>
      </trkpt>
      <trkpt lat="44.69693" lon="5.96501">
        <ele>1525.289</ele>
        <time>2020-08-26T06:27:55Z</time>
      </trkpt>
      <trkpt lat="44.697" lon="5.96504">
        <ele>1524.544</ele>
        <time>2020-08-26T06:28:07Z</time>
      </trkpt>
      <trkpt lat="44.69699" lon="5.96508">
        <ele>1524.759</ele>
        <time>2020-08-26T06:28:10Z</time>
      </trkpt>
      <trkpt lat="44.697" lon="5.9651">
        <ele>1524.79</ele>
        <time>2020-08-26T06:28:11Z</time>
      </trkpt>
      <trkpt lat="44.697" lon="5.96511">
        <ele>1524.828</ele>
        <time>2020-08-26T06:28:12Z</time>
      </trkpt>
      <trkpt lat="44.697" lon="5.96513">
        <ele>1524.894</ele>
        <time>2020-08-26T06:28:13Z</time>
      </trkpt>
      <trkpt lat="44.697" lon="5.96514">
        <ele>1524.919</ele>
        <time>2020-08-26T06:28:14Z</time>
      </trkpt>
      <trkpt lat="44.69699" lon="5.9654">
        <ele>1525.961</ele>
        <time>2020-08-26T06:28:31Z</time>
      </trkpt>
      <trkpt lat="44.69698" lon="5.96557">
        <ele>1526.591</ele>
        <time>2020-08-26T06:28:42Z</time>
      </trkpt>
      <trkpt lat="44.69698" lon="5.96558">
        <ele>1526.657</ele>
        <time>2020-08-26T06:28:43Z</time>
      </trkpt>
      <trkpt lat="44.69697" lon="5.9656">
        <ele>1526.711</ele>
        <time>2020-08-26T06:28:44Z</time>
      </trkpt>
      <trkpt lat="44.69697" lon="5.96563">
        <ele>1526.764</ele>
        <time>2020-08-26T06:28:46Z</time>
      </trkpt>
      <trkpt lat="44.69697" lon="5.96564">
        <ele>1526.778</ele>
        <time>2020-08-26T06:28:47Z</time>
      </trkpt>
      <trkpt lat="44.69695" lon="5.96574">
        <ele>1526.922</ele>
        <time>2020-08-26T06:28:54Z</time>
      </trkpt>
      <trkpt lat="44.69695" lon="5.96577">
        <ele>1526.956</ele>
        <time>2020-08-26T06:28:56Z</time>
      </trkpt>
      <trkpt lat="44.69695" lon="5.96579">
        <ele>1526.983</ele>
        <time>2020-08-26T06:28:57Z</time>
      </trkpt>
      <trkpt lat="44.69694" lon="5.9658">
        <ele>1527.058</ele>
        <time>2020-08-26T06:28:58Z</time>
      </trkpt>
      <trkpt lat="44.69696" lon="5.96585">
        <ele>1526.969</ele>
        <time>2020-08-26T06:29:03Z</time>
      </trkpt>
      <trkpt lat="44.69696" lon="5.96587">
        <ele>1527.033</ele>
        <time>2020-08-26T06:29:04Z</time>
      </trkpt>
      <trkpt lat="44.69695" lon="5.96601">
        <ele>1527.576</ele>
        <time>2020-08-26T06:29:15Z</time>
      </trkpt>
      <trkpt lat="44.69696" lon="5.96613">
        <ele>1528</ele>
        <time>2020-08-26T06:29:23Z</time>
      </trkpt>
      <trkpt lat="44.69696" lon="5.9662">
        <ele>1528.211</ele>
        <time>2020-08-26T06:29:28Z</time>
      </trkpt>
      <trkpt lat="44.69694" lon="5.9663">
        <ele>1528.858</ele>
        <time>2020-08-26T06:29:40Z</time>
      </trkpt>
      <trkpt lat="44.69691" lon="5.96651">
        <ele>1530.535</ele>
        <time>2020-08-26T06:29:56Z</time>
      </trkpt>
      <trkpt lat="44.6969" lon="5.96663">
        <ele>1531.757</ele>
        <time>2020-08-26T06:30:05Z</time>
      </trkpt>
      <trkpt lat="44.69689" lon="5.96664">
        <ele>1532.004</ele>
        <time>2020-08-26T06:30:06Z</time>
      </trkpt>
      <trkpt lat="44.69688" lon="5.96667">
        <ele>1532.392</ele>
        <time>2020-08-26T06:30:08Z</time>
      </trkpt>
      <trkpt lat="44.69689" lon="5.96683">
        <ele>1532.841</ele>
        <time>2020-08-26T06:30:20Z</time>
      </trkpt>
      <trkpt lat="44.69689" lon="5.96684">
        <ele>1532.926</ele>
        <time>2020-08-26T06:30:21Z</time>
      </trkpt>
      <trkpt lat="44.69687" lon="5.96691">
        <ele>1533.7</ele>
        <time>2020-08-26T06:30:26Z</time>
      </trkpt>
      <trkpt lat="44.69687" lon="5.96692">
        <ele>1533.788</ele>
        <time>2020-08-26T06:30:27Z</time>
      </trkpt>
      <trkpt lat="44.6968" lon="5.96716">
        <ele>1537.18</ele>
        <time>2020-08-26T06:30:49Z</time>
      </trkpt>
      <trkpt lat="44.69679" lon="5.96734">
        <ele>1538.66</ele>
        <time>2020-08-26T06:31:02Z</time>
      </trkpt>
      <trkpt lat="44.69684" lon="5.96756">
        <ele>1539.106</ele>
        <time>2020-08-26T06:31:19Z</time>
      </trkpt>
      <trkpt lat="44.69687" lon="5.96769">
        <ele>1539.376</ele>
        <time>2020-08-26T06:31:29Z</time>
      </trkpt>
      <trkpt lat="44.69688" lon="5.96773">
        <ele>1539.37</ele>
        <time>2020-08-26T06:31:32Z</time>
      </trkpt>
      <trkpt lat="44.69687" lon="5.96777">
        <ele>1539.942</ele>
        <time>2020-08-26T06:31:35Z</time>
      </trkpt>
      <trkpt lat="44.69687" lon="5.96779">
        <ele>1540.137</ele>
        <time>2020-08-26T06:31:36Z</time>
      </trkpt>
      <trkpt lat="44.69688" lon="5.9678">
        <ele>1540.092</ele>
        <time>2020-08-26T06:31:37Z</time>
      </trkpt>
      <trkpt lat="44.69689" lon="5.96784">
        <ele>1540.188</ele>
        <time>2020-08-26T06:31:40Z</time>
      </trkpt>
      <trkpt lat="44.69689" lon="5.96788">
        <ele>1540.452</ele>
        <time>2020-08-26T06:31:43Z</time>
      </trkpt>
      <trkpt lat="44.69692" lon="5.96807">
        <ele>1541.082</ele>
        <time>2020-08-26T06:31:57Z</time>
      </trkpt>
      <trkpt lat="44.69694" lon="5.96836">
        <ele>1543.689</ele>
        <time>2020-08-26T06:32:17Z</time>
      </trkpt>
      <trkpt lat="44.69694" lon="5.96838">
        <ele>1543.9</ele>
        <time>2020-08-26T06:32:18Z</time>
      </trkpt>
      <trkpt lat="44.69701" lon="5.96857">
        <ele>1545.649</ele>
        <time>2020-08-26T06:32:33Z</time>
      </trkpt>
      <trkpt lat="44.69703" lon="5.96877">
        <ele>1547.738</ele>
        <time>2020-08-26T06:32:50Z</time>
      </trkpt>
      <trkpt lat="44.69703" lon="5.96884">
        <ele>1548.642</ele>
        <time>2020-08-26T06:32:54Z</time>
      </trkpt>
      <trkpt lat="44.69706" lon="5.96885">
        <ele>1548.071</ele>
        <time>2020-08-26T06:32:55Z</time>
      </trkpt>
      <trkpt lat="44.69708" lon="5.96889">
        <ele>1548.101</ele>
        <time>2020-08-26T06:32:57Z</time>
      </trkpt>
      <trkpt lat="44.69709" lon="5.9689">
        <ele>1547.925</ele>
        <time>2020-08-26T06:32:58Z</time>
      </trkpt>
      <trkpt lat="44.69709" lon="5.96891">
        <ele>1547.884</ele>
        <time>2020-08-26T06:32:59Z</time>
      </trkpt>
      <trkpt lat="44.69709" lon="5.96894">
        <ele>1548.212</ele>
        <time>2020-08-26T06:33:01Z</time>
      </trkpt>
      <trkpt lat="44.6971" lon="5.96895">
        <ele>1548.279</ele>
        <time>2020-08-26T06:33:02Z</time>
      </trkpt>
      <trkpt lat="44.69712" lon="5.96901">
        <ele>1548.245</ele>
        <time>2020-08-26T06:33:08Z</time>
      </trkpt>
      <trkpt lat="44.69713" lon="5.96902">
        <ele>1548.077</ele>
        <time>2020-08-26T06:33:09Z</time>
      </trkpt>
      <trkpt lat="44.69713" lon="5.96905">
        <ele>1548.514</ele>
        <time>2020-08-26T06:33:12Z</time>
      </trkpt>
      <trkpt lat="44.69713" lon="5.96906">
        <ele>1548.635</ele>
        <time>2020-08-26T06:33:13Z</time>
      </trkpt>
      <trkpt lat="44.69715" lon="5.96907">
        <ele>1548.509</ele>
        <time>2020-08-26T06:33:14Z</time>
      </trkpt>
      <trkpt lat="44.69715" lon="5.96909">
        <ele>1548.571</ele>
        <time>2020-08-26T06:33:15Z</time>
      </trkpt>
      <trkpt lat="44.69716" lon="5.9691">
        <ele>1548.591</ele>
        <time>2020-08-26T06:33:16Z</time>
      </trkpt>
      <trkpt lat="44.69716" lon="5.96911">
        <ele>1548.737</ele>
        <time>2020-08-26T06:33:17Z</time>
      </trkpt>
      <trkpt lat="44.69715" lon="5.96913">
        <ele>1549.021</ele>
        <time>2020-08-26T06:33:18Z</time>
      </trkpt>
      <trkpt lat="44.69715" lon="5.96914">
        <ele>1549.233</ele>
        <time>2020-08-26T06:33:19Z</time>
      </trkpt>
      <trkpt lat="44.69714" lon="5.96926">
        <ele>1550.8</ele>
        <time>2020-08-26T06:33:29Z</time>
      </trkpt>
      <trkpt lat="44.69718" lon="5.9694">
        <ele>1551.459</ele>
        <time>2020-08-26T06:33:41Z</time>
      </trkpt>
      <trkpt lat="44.69719" lon="5.96943">
        <ele>1551.456</ele>
        <time>2020-08-26T06:33:44Z</time>
      </trkpt>
      <trkpt lat="44.69719" lon="5.96944">
        <ele>1551.631</ele>
        <time>2020-08-26T06:33:45Z</time>
      </trkpt>
      <trkpt lat="44.69722" lon="5.96957">
        <ele>1551.896</ele>
        <time>2020-08-26T06:33:58Z</time>
      </trkpt>
      <trkpt lat="44.69722" lon="5.96962">
        <ele>1552.299</ele>
        <time>2020-08-26T06:34:04Z</time>
      </trkpt>
      <trkpt lat="44.69721" lon="5.9697">
        <ele>1553.227</ele>
        <time>2020-08-26T06:34:10Z</time>
      </trkpt>
      <trkpt lat="44.69725" lon="5.96977">
        <ele>1552.834</ele>
        <time>2020-08-26T06:34:16Z</time>
      </trkpt>
      <trkpt lat="44.69725" lon="5.96978">
        <ele>1552.778</ele>
        <time>2020-08-26T06:34:17Z</time>
      </trkpt>
      <trkpt lat="44.69726" lon="5.9698">
        <ele>1552.758</ele>
        <time>2020-08-26T06:34:18Z</time>
      </trkpt>
      <trkpt lat="44.69727" lon="5.96981">
        <ele>1552.669</ele>
        <time>2020-08-26T06:34:19Z</time>
      </trkpt>
      <trkpt lat="44.69728" lon="5.96984">
        <ele>1552.606</ele>
        <time>2020-08-26T06:34:21Z</time>
      </trkpt>
      <trkpt lat="44.69731" lon="5.96994">
        <ele>1552.735</ele>
        <time>2020-08-26T06:34:29Z</time>
      </trkpt>
      <trkpt lat="44.6973" lon="5.97013">
        <ele>1553.858</ele>
        <time>2020-08-26T06:34:43Z</time>
      </trkpt>
      <trkpt lat="44.69731" lon="5.97016">
        <ele>1553.781</ele>
        <time>2020-08-26T06:34:46Z</time>
      </trkpt>
      <trkpt lat="44.69731" lon="5.97021">
        <ele>1553.781</ele>
        <time>2020-08-26T06:34:50Z</time>
      </trkpt>
      <trkpt lat="44.69732" lon="5.97023">
        <ele>1553.679</ele>
        <time>2020-08-26T06:34:51Z</time>
      </trkpt>
      <trkpt lat="44.69732" lon="5.97024">
        <ele>1553.682</ele>
        <time>2020-08-26T06:34:52Z</time>
      </trkpt>
      <trkpt lat="44.69729" lon="5.97045">
        <ele>1555.195</ele>
        <time>2020-08-26T06:35:06Z</time>
      </trkpt>
      <trkpt lat="44.69723" lon="5.9706">
        <ele>1557.109</ele>
        <time>2020-08-26T06:35:19Z</time>
      </trkpt>
      <trkpt lat="44.69722" lon="5.97062">
        <ele>1557.425</ele>
        <time>2020-08-26T06:35:20Z</time>
      </trkpt>
      <trkpt lat="44.69722" lon="5.97063">
        <ele>1557.743</ele>
        <time>2020-08-26T06:35:21Z</time>
      </trkpt>
      <trkpt lat="44.6972" lon="5.97064">
        <ele>1558.379</ele>
        <time>2020-08-26T06:35:23Z</time>
      </trkpt>
      <trkpt lat="44.69718" lon="5.97074">
        <ele>1559.632</ele>
        <time>2020-08-26T06:35:32Z</time>
      </trkpt>
      <trkpt lat="44.69718" lon="5.97076">
        <ele>1559.95</ele>
        <time>2020-08-26T06:35:34Z</time>
      </trkpt>
      <trkpt lat="44.69717" lon="5.97085">
        <ele>1560.68</ele>
        <time>2020-08-26T06:35:40Z</time>
      </trkpt>
      <trkpt lat="44.69718" lon="5.97087">
        <ele>1560.488</ele>
        <time>2020-08-26T06:35:41Z</time>
      </trkpt>
      <trkpt lat="44.69719" lon="5.9709">
        <ele>1560.607</ele>
        <time>2020-08-26T06:35:43Z</time>
      </trkpt>
      <trkpt lat="44.69719" lon="5.97095">
        <ele>1561.013</ele>
        <time>2020-08-26T06:35:47Z</time>
      </trkpt>
      <trkpt lat="44.69717" lon="5.97096">
        <ele>1561.469</ele>
        <time>2020-08-26T06:35:48Z</time>
      </trkpt>
      <trkpt lat="44.69716" lon="5.97113">
        <ele>1563.05</ele>
        <time>2020-08-26T06:36:01Z</time>
      </trkpt>
      <trkpt lat="44.69716" lon="5.97125">
        <ele>1564.437</ele>
        <time>2020-08-26T06:36:09Z</time>
      </trkpt>
      <trkpt lat="44.69712" lon="5.97156">
        <ele>1568.28</ele>
        <time>2020-08-26T06:36:32Z</time>
      </trkpt>
      <trkpt lat="44.69719" lon="5.97187">
        <ele>1569.089</ele>
        <time>2020-08-26T06:36:55Z</time>
      </trkpt>
      <trkpt lat="44.69727" lon="5.97211">
        <ele>1570.766</ele>
        <time>2020-08-26T06:37:15Z</time>
      </trkpt>
      <trkpt lat="44.69738" lon="5.97222">
        <ele>1571.232</ele>
        <time>2020-08-26T06:37:30Z</time>
      </trkpt>
      <trkpt lat="44.6974" lon="5.97225">
        <ele>1571.413</ele>
        <time>2020-08-26T06:37:33Z</time>
      </trkpt>
      <trkpt lat="44.69741" lon="5.97227">
        <ele>1571.436</ele>
        <time>2020-08-26T06:37:34Z</time>
      </trkpt>
      <trkpt lat="44.6975" lon="5.97236">
        <ele>1571.45</ele>
        <time>2020-08-26T06:37:46Z</time>
      </trkpt>
      <trkpt lat="44.69755" lon="5.97251">
        <ele>1572.373</ele>
        <time>2020-08-26T06:37:58Z</time>
      </trkpt>
      <trkpt lat="44.69755" lon="5.97258">
        <ele>1573.072</ele>
        <time>2020-08-26T06:38:06Z</time>
      </trkpt>
      <trkpt lat="44.69758" lon="5.9727">
        <ele>1573.756</ele>
        <time>2020-08-26T06:38:18Z</time>
      </trkpt>
      <trkpt lat="44.69758" lon="5.9729">
        <ele>1575.522</ele>
        <time>2020-08-26T06:38:35Z</time>
      </trkpt>
      <trkpt lat="44.69759" lon="5.97292">
        <ele>1575.487</ele>
        <time>2020-08-26T06:38:36Z</time>
      </trkpt>
      <trkpt lat="44.69755" lon="5.97311">
        <ele>1577.451</ele>
        <time>2020-08-26T06:38:52Z</time>
      </trkpt>
      <trkpt lat="44.69757" lon="5.97332">
        <ele>1578.585</ele>
        <time>2020-08-26T06:39:06Z</time>
      </trkpt>
      <trkpt lat="44.69756" lon="5.97362">
        <ele>1580.991</ele>
        <time>2020-08-26T06:39:29Z</time>
      </trkpt>
      <trkpt lat="44.69756" lon="5.97387">
        <ele>1582.881</ele>
        <time>2020-08-26T06:39:48Z</time>
      </trkpt>
      <trkpt lat="44.69755" lon="5.97412">
        <ele>1585.382</ele>
        <time>2020-08-26T06:40:08Z</time>
      </trkpt>
      <trkpt lat="44.69756" lon="5.97435">
        <ele>1586.961</ele>
        <time>2020-08-26T06:40:27Z</time>
      </trkpt>
      <trkpt lat="44.69748" lon="5.97456">
        <ele>1589.817</ele>
        <time>2020-08-26T06:40:48Z</time>
      </trkpt>
      <trkpt lat="44.6974" lon="5.97458">
        <ele>1591.344</ele>
        <time>2020-08-26T06:41:03Z</time>
      </trkpt>
      <trkpt lat="44.69733" lon="5.9744">
        <ele>1591.737</ele>
        <time>2020-08-26T06:41:19Z</time>
      </trkpt>
      <trkpt lat="44.69732" lon="5.97438">
        <ele>1591.839</ele>
        <time>2020-08-26T06:41:21Z</time>
      </trkpt>
      <trkpt lat="44.69727" lon="5.97421">
        <ele>1591.441</ele>
        <time>2020-08-26T06:41:37Z</time>
      </trkpt>
      <trkpt lat="44.69717" lon="5.974">
        <ele>1591.749</ele>
        <time>2020-08-26T06:41:57Z</time>
      </trkpt>
      <trkpt lat="44.69703" lon="5.97378">
        <ele>1592.344</ele>
        <time>2020-08-26T06:42:14Z</time>
      </trkpt>
      <trkpt lat="44.69692" lon="5.97366">
        <ele>1592.992</ele>
        <time>2020-08-26T06:42:30Z</time>
      </trkpt>
      <trkpt lat="44.69688" lon="5.9737">
        <ele>1594.106</ele>
        <time>2020-08-26T06:42:35Z</time>
      </trkpt>
      <trkpt lat="44.69689" lon="5.97382">
        <ele>1595.203</ele>
        <time>2020-08-26T06:42:47Z</time>
      </trkpt>
      <trkpt lat="44.6969" lon="5.97386">
        <ele>1595.523</ele>
        <time>2020-08-26T06:42:50Z</time>
      </trkpt>
      <trkpt lat="44.6969" lon="5.97409">
        <ele>1597.191</ele>
        <time>2020-08-26T06:43:09Z</time>
      </trkpt>
      <trkpt lat="44.69688" lon="5.97433">
        <ele>1599.537</ele>
        <time>2020-08-26T06:43:27Z</time>
      </trkpt>
      <trkpt lat="44.69688" lon="5.97435">
        <ele>1599.687</ele>
        <time>2020-08-26T06:43:28Z</time>
      </trkpt>
      <trkpt lat="44.69688" lon="5.97447">
        <ele>1600.448</ele>
        <time>2020-08-26T06:43:37Z</time>
      </trkpt>
      <trkpt lat="44.69687" lon="5.97463">
        <ele>1601.332</ele>
        <time>2020-08-26T06:43:48Z</time>
      </trkpt>
      <trkpt lat="44.69686" lon="5.97467">
        <ele>1601.554</ele>
        <time>2020-08-26T06:43:51Z</time>
      </trkpt>
      <trkpt lat="44.69684" lon="5.97482">
        <ele>1602.511</ele>
        <time>2020-08-26T06:44:03Z</time>
      </trkpt>
      <trkpt lat="44.69685" lon="5.97484">
        <ele>1602.531</ele>
        <time>2020-08-26T06:44:05Z</time>
      </trkpt>
      <trkpt lat="44.69685" lon="5.97486">
        <ele>1602.514</ele>
        <time>2020-08-26T06:44:06Z</time>
      </trkpt>
      <trkpt lat="44.69685" lon="5.97488">
        <ele>1602.502</ele>
        <time>2020-08-26T06:44:07Z</time>
      </trkpt>
      <trkpt lat="44.69683" lon="5.97503">
        <ele>1603.57</ele>
        <time>2020-08-26T06:44:19Z</time>
      </trkpt>
      <trkpt lat="44.69683" lon="5.9751">
        <ele>1604.051</ele>
        <time>2020-08-26T06:44:25Z</time>
      </trkpt>
      <trkpt lat="44.69681" lon="5.97525">
        <ele>1605.321</ele>
        <time>2020-08-26T06:44:38Z</time>
      </trkpt>
      <trkpt lat="44.6968" lon="5.97528">
        <ele>1605.627</ele>
        <time>2020-08-26T06:44:40Z</time>
      </trkpt>
      <trkpt lat="44.6968" lon="5.9753">
        <ele>1605.748</ele>
        <time>2020-08-26T06:44:41Z</time>
      </trkpt>
      <trkpt lat="44.69677" lon="5.97537">
        <ele>1606.383</ele>
        <time>2020-08-26T06:44:54Z</time>
      </trkpt>
      <trkpt lat="44.69669" lon="5.97552">
        <ele>1607.606</ele>
        <time>2020-08-26T06:45:11Z</time>
      </trkpt>
      <trkpt lat="44.69661" lon="5.97571">
        <ele>1608.768</ele>
        <time>2020-08-26T06:45:28Z</time>
      </trkpt>
      <trkpt lat="44.69656" lon="5.97581">
        <ele>1609.417</ele>
        <time>2020-08-26T06:45:37Z</time>
      </trkpt>
      <trkpt lat="44.69654" lon="5.97589">
        <ele>1609.63</ele>
        <time>2020-08-26T06:45:44Z</time>
      </trkpt>
      <trkpt lat="44.69646" lon="5.97606">
        <ele>1610.707</ele>
        <time>2020-08-26T06:46:01Z</time>
      </trkpt>
      <trkpt lat="44.69639" lon="5.97625">
        <ele>1611.531</ele>
        <time>2020-08-26T06:46:20Z</time>
      </trkpt>
      <trkpt lat="44.69634" lon="5.97645">
        <ele>1611.57</ele>
        <time>2020-08-26T06:46:37Z</time>
      </trkpt>
      <trkpt lat="44.69622" lon="5.97671">
        <ele>1612.105</ele>
        <time>2020-08-26T06:47:00Z</time>
      </trkpt>
      <trkpt lat="44.69621" lon="5.97673">
        <ele>1612.2</ele>
        <time>2020-08-26T06:47:02Z</time>
      </trkpt>
      <trkpt lat="44.6962" lon="5.97674">
        <ele>1612.281</ele>
        <time>2020-08-26T06:47:03Z</time>
      </trkpt>
      <trkpt lat="44.69616" lon="5.97685">
        <ele>1612.108</ele>
        <time>2020-08-26T06:47:13Z</time>
      </trkpt>
      <trkpt lat="44.69615" lon="5.97687">
        <ele>1612.067</ele>
        <time>2020-08-26T06:47:14Z</time>
      </trkpt>
      <trkpt lat="44.69614" lon="5.97689">
        <ele>1612.029</ele>
        <time>2020-08-26T06:47:16Z</time>
      </trkpt>
      <trkpt lat="44.69614" lon="5.9769">
        <ele>1611.987</ele>
        <time>2020-08-26T06:47:17Z</time>
      </trkpt>
      <trkpt lat="44.69613" lon="5.97691">
        <ele>1611.951</ele>
        <time>2020-08-26T06:47:18Z</time>
      </trkpt>
      <trkpt lat="44.69605" lon="5.97703">
        <ele>1613.199</ele>
        <time>2020-08-26T06:47:31Z</time>
      </trkpt>
      <trkpt lat="44.69599" lon="5.9771">
        <ele>1614.145</ele>
        <time>2020-08-26T06:47:38Z</time>
      </trkpt>
      <trkpt lat="44.69596" lon="5.97716">
        <ele>1614.512</ele>
        <time>2020-08-26T06:47:44Z</time>
      </trkpt>
      <trkpt lat="44.69596" lon="5.97717">
        <ele>1614.657</ele>
        <time>2020-08-26T06:47:45Z</time>
      </trkpt>
      <trkpt lat="44.69594" lon="5.97722">
        <ele>1614.78</ele>
        <time>2020-08-26T06:47:50Z</time>
      </trkpt>
      <trkpt lat="44.69591" lon="5.97728">
        <ele>1614.868</ele>
        <time>2020-08-26T06:47:55Z</time>
      </trkpt>
      <trkpt lat="44.69586" lon="5.97744">
        <ele>1614.793</ele>
        <time>2020-08-26T06:48:09Z</time>
      </trkpt>
      <trkpt lat="44.69582" lon="5.97755">
        <ele>1615.219</ele>
        <time>2020-08-26T06:48:17Z</time>
      </trkpt>
      <trkpt lat="44.69581" lon="5.97757">
        <ele>1615.228</ele>
        <time>2020-08-26T06:48:18Z</time>
      </trkpt>
      <trkpt lat="44.69576" lon="5.9777">
        <ele>1615.712</ele>
        <time>2020-08-26T06:48:30Z</time>
      </trkpt>
      <trkpt lat="44.69571" lon="5.97789">
        <ele>1616.744</ele>
        <time>2020-08-26T06:48:44Z</time>
      </trkpt>
      <trkpt lat="44.69566" lon="5.97803">
        <ele>1617.561</ele>
        <time>2020-08-26T06:48:54Z</time>
      </trkpt>
      <trkpt lat="44.69565" lon="5.97804">
        <ele>1617.636</ele>
        <time>2020-08-26T06:48:55Z</time>
      </trkpt>
      <trkpt lat="44.69565" lon="5.97806">
        <ele>1617.684</ele>
        <time>2020-08-26T06:48:56Z</time>
      </trkpt>
      <trkpt lat="44.69565" lon="5.97807">
        <ele>1617.794</ele>
        <time>2020-08-26T06:48:57Z</time>
      </trkpt>
      <trkpt lat="44.69561" lon="5.97828">
        <ele>1618.865</ele>
        <time>2020-08-26T06:49:11Z</time>
      </trkpt>
      <trkpt lat="44.6956" lon="5.9783">
        <ele>1618.905</ele>
        <time>2020-08-26T06:49:12Z</time>
      </trkpt>
      <trkpt lat="44.69555" lon="5.97842">
        <ele>1619.994</ele>
        <time>2020-08-26T06:49:27Z</time>
      </trkpt>
      <trkpt lat="44.69554" lon="5.97846">
        <ele>1620.367</ele>
        <time>2020-08-26T06:49:30Z</time>
      </trkpt>
      <trkpt lat="44.69553" lon="5.97847">
        <ele>1620.493</ele>
        <time>2020-08-26T06:49:31Z</time>
      </trkpt>
      <trkpt lat="44.69551" lon="5.97855">
        <ele>1621.203</ele>
        <time>2020-08-26T06:49:37Z</time>
      </trkpt>
      <trkpt lat="44.69551" lon="5.97856">
        <ele>1621.291</ele>
        <time>2020-08-26T06:49:38Z</time>
      </trkpt>
      <trkpt lat="44.6955" lon="5.97858">
        <ele>1621.382</ele>
        <time>2020-08-26T06:49:39Z</time>
      </trkpt>
      <trkpt lat="44.69548" lon="5.97863">
        <ele>1621.781</ele>
        <time>2020-08-26T06:49:43Z</time>
      </trkpt>
      <trkpt lat="44.69547" lon="5.97864">
        <ele>1621.928</ele>
        <time>2020-08-26T06:49:44Z</time>
      </trkpt>
      <trkpt lat="44.6954" lon="5.97879">
        <ele>1622.952</ele>
        <time>2020-08-26T06:49:57Z</time>
      </trkpt>
      <trkpt lat="44.69533" lon="5.97889">
        <ele>1622.491</ele>
        <time>2020-08-26T06:50:07Z</time>
      </trkpt>
      <trkpt lat="44.69533" lon="5.97892">
        <ele>1622.829</ele>
        <time>2020-08-26T06:50:09Z</time>
      </trkpt>
      <trkpt lat="44.69531" lon="5.97895">
        <ele>1623.149</ele>
        <time>2020-08-26T06:50:12Z</time>
      </trkpt>
      <trkpt lat="44.6952" lon="5.9791">
        <ele>1624.937</ele>
        <time>2020-08-26T06:50:30Z</time>
      </trkpt>
      <trkpt lat="44.69512" lon="5.97926">
        <ele>1627.27</ele>
        <time>2020-08-26T06:50:45Z</time>
      </trkpt>
      <trkpt lat="44.695" lon="5.97949">
        <ele>1628.977</ele>
        <time>2020-08-26T06:51:05Z</time>
      </trkpt>
      <trkpt lat="44.69493" lon="5.97962">
        <ele>1630.953</ele>
        <time>2020-08-26T06:51:16Z</time>
      </trkpt>
      <trkpt lat="44.69492" lon="5.97962">
        <ele>1630.901</ele>
        <time>2020-08-26T06:51:17Z</time>
      </trkpt>
      <trkpt lat="44.69491" lon="5.97963">
        <ele>1630.899</ele>
        <time>2020-08-26T06:51:18Z</time>
      </trkpt>
      <trkpt lat="44.69484" lon="5.97973">
        <ele>1631.262</ele>
        <time>2020-08-26T06:51:29Z</time>
      </trkpt>
      <trkpt lat="44.69484" lon="5.97974">
        <ele>1631.303</ele>
        <time>2020-08-26T06:51:30Z</time>
      </trkpt>
      <trkpt lat="44.69482" lon="5.97975">
        <ele>1631.277</ele>
        <time>2020-08-26T06:51:32Z</time>
      </trkpt>
      <trkpt lat="44.69475" lon="5.97984">
        <ele>1631.114</ele>
        <time>2020-08-26T06:51:41Z</time>
      </trkpt>
      <trkpt lat="44.69474" lon="5.97985">
        <ele>1631.123</ele>
        <time>2020-08-26T06:51:42Z</time>
      </trkpt>
      <trkpt lat="44.69465" lon="5.97997">
        <ele>1632.354</ele>
        <time>2020-08-26T06:51:55Z</time>
      </trkpt>
      <trkpt lat="44.69456" lon="5.98008">
        <ele>1633.327</ele>
        <time>2020-08-26T06:52:06Z</time>
      </trkpt>
      <trkpt lat="44.69456" lon="5.98009">
        <ele>1633.396</ele>
        <time>2020-08-26T06:52:07Z</time>
      </trkpt>
      <trkpt lat="44.6945" lon="5.98024">
        <ele>1634.486</ele>
        <time>2020-08-26T06:52:21Z</time>
      </trkpt>
      <trkpt lat="44.69445" lon="5.98041">
        <ele>1635.508</ele>
        <time>2020-08-26T06:52:34Z</time>
      </trkpt>
      <trkpt lat="44.69444" lon="5.98042">
        <ele>1635.597</ele>
        <time>2020-08-26T06:52:35Z</time>
      </trkpt>
      <trkpt lat="44.69438" lon="5.98056">
        <ele>1637.434</ele>
        <time>2020-08-26T06:52:47Z</time>
      </trkpt>
      <trkpt lat="44.69437" lon="5.98058">
        <ele>1637.682</ele>
        <time>2020-08-26T06:52:49Z</time>
      </trkpt>
      <trkpt lat="44.69436" lon="5.98059">
        <ele>1637.82</ele>
        <time>2020-08-26T06:52:50Z</time>
      </trkpt>
      <trkpt lat="44.69436" lon="5.98061">
        <ele>1638.043</ele>
        <time>2020-08-26T06:52:52Z</time>
      </trkpt>
      <trkpt lat="44.6943" lon="5.98073">
        <ele>1638.962</ele>
        <time>2020-08-26T06:53:03Z</time>
      </trkpt>
      <trkpt lat="44.69429" lon="5.98074">
        <ele>1639.018</ele>
        <time>2020-08-26T06:53:04Z</time>
      </trkpt>
      <trkpt lat="44.69427" lon="5.98079">
        <ele>1639.185</ele>
        <time>2020-08-26T06:53:08Z</time>
      </trkpt>
      <trkpt lat="44.69424" lon="5.98084">
        <ele>1639.315</ele>
        <time>2020-08-26T06:53:13Z</time>
      </trkpt>
      <trkpt lat="44.69424" lon="5.98085">
        <ele>1639.508</ele>
        <time>2020-08-26T06:53:14Z</time>
      </trkpt>
      <trkpt lat="44.69423" lon="5.98088">
        <ele>1639.729</ele>
        <time>2020-08-26T06:53:16Z</time>
      </trkpt>
      <trkpt lat="44.69422" lon="5.98089">
        <ele>1639.828</ele>
        <time>2020-08-26T06:53:17Z</time>
      </trkpt>
      <trkpt lat="44.69421" lon="5.9809">
        <ele>1639.969</ele>
        <time>2020-08-26T06:53:18Z</time>
      </trkpt>
      <trkpt lat="44.69421" lon="5.98091">
        <ele>1640.097</ele>
        <time>2020-08-26T06:53:19Z</time>
      </trkpt>
      <trkpt lat="44.69418" lon="5.98102">
        <ele>1641.117</ele>
        <time>2020-08-26T06:53:28Z</time>
      </trkpt>
      <trkpt lat="44.69416" lon="5.98104">
        <ele>1641.263</ele>
        <time>2020-08-26T06:53:30Z</time>
      </trkpt>
      <trkpt lat="44.69415" lon="5.98105">
        <ele>1641.354</ele>
        <time>2020-08-26T06:53:31Z</time>
      </trkpt>
      <trkpt lat="44.69414" lon="5.9811">
        <ele>1641.954</ele>
        <time>2020-08-26T06:53:36Z</time>
      </trkpt>
      <trkpt lat="44.6941" lon="5.98116">
        <ele>1642.98</ele>
        <time>2020-08-26T06:53:42Z</time>
      </trkpt>
      <trkpt lat="44.69409" lon="5.98117">
        <ele>1643.162</ele>
        <time>2020-08-26T06:53:43Z</time>
      </trkpt>
      <trkpt lat="44.69408" lon="5.98118">
        <ele>1643.344</ele>
        <time>2020-08-26T06:53:44Z</time>
      </trkpt>
      <trkpt lat="44.69403" lon="5.98128">
        <ele>1644.658</ele>
        <time>2020-08-26T06:53:53Z</time>
      </trkpt>
      <trkpt lat="44.69399" lon="5.98133">
        <ele>1645.036</ele>
        <time>2020-08-26T06:53:58Z</time>
      </trkpt>
      <trkpt lat="44.69398" lon="5.98134">
        <ele>1645.103</ele>
        <time>2020-08-26T06:53:59Z</time>
      </trkpt>
      <trkpt lat="44.69397" lon="5.98135">
        <ele>1645.212</ele>
        <time>2020-08-26T06:54:00Z</time>
      </trkpt>
      <trkpt lat="44.69396" lon="5.98139">
        <ele>1645.555</ele>
        <time>2020-08-26T06:54:03Z</time>
      </trkpt>
      <trkpt lat="44.69395" lon="5.98141">
        <ele>1645.708</ele>
        <time>2020-08-26T06:54:05Z</time>
      </trkpt>
      <trkpt lat="44.69394" lon="5.98141">
        <ele>1645.649</ele>
        <time>2020-08-26T06:54:06Z</time>
      </trkpt>
      <trkpt lat="44.69393" lon="5.98141">
        <ele>1645.612</ele>
        <time>2020-08-26T06:54:07Z</time>
      </trkpt>
      <trkpt lat="44.69392" lon="5.98142">
        <ele>1645.638</ele>
        <time>2020-08-26T06:54:08Z</time>
      </trkpt>
      <trkpt lat="44.69392" lon="5.98145">
        <ele>1645.895</ele>
        <time>2020-08-26T06:54:10Z</time>
      </trkpt>
      <trkpt lat="44.69384" lon="5.98156">
        <ele>1647.035</ele>
        <time>2020-08-26T06:54:24Z</time>
      </trkpt>
      <trkpt lat="44.69384" lon="5.98162">
        <ele>1647.563</ele>
        <time>2020-08-26T06:54:28Z</time>
      </trkpt>
      <trkpt lat="44.69383" lon="5.98162">
        <ele>1647.648</ele>
        <time>2020-08-26T06:54:29Z</time>
      </trkpt>
      <trkpt lat="44.69381" lon="5.98167">
        <ele>1648.009</ele>
        <time>2020-08-26T06:54:33Z</time>
      </trkpt>
      <trkpt lat="44.6938" lon="5.98169">
        <ele>1648.291</ele>
        <time>2020-08-26T06:54:35Z</time>
      </trkpt>
      <trkpt lat="44.69379" lon="5.9817">
        <ele>1648.392</ele>
        <time>2020-08-26T06:54:36Z</time>
      </trkpt>
      <trkpt lat="44.69379" lon="5.98172">
        <ele>1648.604</ele>
        <time>2020-08-26T06:54:38Z</time>
      </trkpt>
      <trkpt lat="44.69379" lon="5.98174">
        <ele>1648.751</ele>
        <time>2020-08-26T06:54:39Z</time>
      </trkpt>
      <trkpt lat="44.69378" lon="5.98177">
        <ele>1649.017</ele>
        <time>2020-08-26T06:54:41Z</time>
      </trkpt>
      <trkpt lat="44.69375" lon="5.98186">
        <ele>1649.759</ele>
        <time>2020-08-26T06:54:49Z</time>
      </trkpt>
      <trkpt lat="44.69375" lon="5.98187">
        <ele>1649.809</ele>
        <time>2020-08-26T06:54:50Z</time>
      </trkpt>
      <trkpt lat="44.69374" lon="5.98188">
        <ele>1649.82</ele>
        <time>2020-08-26T06:54:51Z</time>
      </trkpt>
      <trkpt lat="44.69369" lon="5.98194">
        <ele>1649.822</ele>
        <time>2020-08-26T06:54:58Z</time>
      </trkpt>
      <trkpt lat="44.69367" lon="5.98203">
        <ele>1650.083</ele>
        <time>2020-08-26T06:55:05Z</time>
      </trkpt>
      <trkpt lat="44.69366" lon="5.98204">
        <ele>1650.07</ele>
        <time>2020-08-26T06:55:06Z</time>
      </trkpt>
      <trkpt lat="44.69365" lon="5.98207">
        <ele>1650.056</ele>
        <time>2020-08-26T06:55:08Z</time>
      </trkpt>
      <trkpt lat="44.69363" lon="5.98211">
        <ele>1649.931</ele>
        <time>2020-08-26T06:55:11Z</time>
      </trkpt>
      <trkpt lat="44.69362" lon="5.98212">
        <ele>1649.857</ele>
        <time>2020-08-26T06:55:12Z</time>
      </trkpt>
      <trkpt lat="44.69362" lon="5.98214">
        <ele>1649.799</ele>
        <time>2020-08-26T06:55:13Z</time>
      </trkpt>
      <trkpt lat="44.69361" lon="5.98215">
        <ele>1649.786</ele>
        <time>2020-08-26T06:55:14Z</time>
      </trkpt>
      <trkpt lat="44.69361" lon="5.98217">
        <ele>1649.811</ele>
        <time>2020-08-26T06:55:15Z</time>
      </trkpt>
      <trkpt lat="44.69356" lon="5.98234">
        <ele>1651.85</ele>
        <time>2020-08-26T06:55:29Z</time>
      </trkpt>
      <trkpt lat="44.69352" lon="5.98245">
        <ele>1653.313</ele>
        <time>2020-08-26T06:55:38Z</time>
      </trkpt>
      <trkpt lat="44.6935" lon="5.98251">
        <ele>1653.938</ele>
        <time>2020-08-26T06:55:43Z</time>
      </trkpt>
      <trkpt lat="44.6935" lon="5.98252">
        <ele>1654.095</ele>
        <time>2020-08-26T06:55:44Z</time>
      </trkpt>
      <trkpt lat="44.69349" lon="5.98253">
        <ele>1654.095</ele>
        <time>2020-08-26T06:55:45Z</time>
      </trkpt>
      <trkpt lat="44.69344" lon="5.98267">
        <ele>1655.517</ele>
        <time>2020-08-26T06:55:59Z</time>
      </trkpt>
      <trkpt lat="44.69338" lon="5.98287">
        <ele>1657.633</ele>
        <time>2020-08-26T06:56:17Z</time>
      </trkpt>
      <trkpt lat="44.69333" lon="5.98301">
        <ele>1659.15</ele>
        <time>2020-08-26T06:56:29Z</time>
      </trkpt>
      <trkpt lat="44.6933" lon="5.98308">
        <ele>1660.111</ele>
        <time>2020-08-26T06:56:35Z</time>
      </trkpt>
      <trkpt lat="44.69329" lon="5.9831">
        <ele>1660.191</ele>
        <time>2020-08-26T06:56:36Z</time>
      </trkpt>
      <trkpt lat="44.69322" lon="5.98325">
        <ele>1661.049</ele>
        <time>2020-08-26T06:56:49Z</time>
      </trkpt>
      <trkpt lat="44.69319" lon="5.98332">
        <ele>1661.321</ele>
        <time>2020-08-26T06:56:54Z</time>
      </trkpt>
      <trkpt lat="44.69316" lon="5.98339">
        <ele>1661.689</ele>
        <time>2020-08-26T06:57:00Z</time>
      </trkpt>
      <trkpt lat="44.69315" lon="5.98341">
        <ele>1661.788</ele>
        <time>2020-08-26T06:57:02Z</time>
      </trkpt>
      <trkpt lat="44.69313" lon="5.98346">
        <ele>1661.857</ele>
        <time>2020-08-26T06:57:07Z</time>
      </trkpt>
      <trkpt lat="44.69312" lon="5.98348">
        <ele>1661.868</ele>
        <time>2020-08-26T06:57:09Z</time>
      </trkpt>
      <trkpt lat="44.69311" lon="5.98349">
        <ele>1662.003</ele>
        <time>2020-08-26T06:57:10Z</time>
      </trkpt>
      <trkpt lat="44.69311" lon="5.98351">
        <ele>1662.047</ele>
        <time>2020-08-26T06:57:11Z</time>
      </trkpt>
      <trkpt lat="44.6931" lon="5.98352">
        <ele>1661.963</ele>
        <time>2020-08-26T06:57:12Z</time>
      </trkpt>
      <trkpt lat="44.69309" lon="5.98353">
        <ele>1661.911</ele>
        <time>2020-08-26T06:57:13Z</time>
      </trkpt>
      <trkpt lat="44.69309" lon="5.98354">
        <ele>1661.933</ele>
        <time>2020-08-26T06:57:14Z</time>
      </trkpt>
      <trkpt lat="44.69308" lon="5.98355">
        <ele>1661.933</ele>
        <time>2020-08-26T06:57:15Z</time>
      </trkpt>
      <trkpt lat="44.69307" lon="5.98358">
        <ele>1662.06</ele>
        <time>2020-08-26T06:57:17Z</time>
      </trkpt>
      <trkpt lat="44.69307" lon="5.98359">
        <ele>1662.089</ele>
        <time>2020-08-26T06:57:18Z</time>
      </trkpt>
      <trkpt lat="44.69299" lon="5.98368">
        <ele>1663.446</ele>
        <time>2020-08-26T06:57:28Z</time>
      </trkpt>
      <trkpt lat="44.69287" lon="5.98382">
        <ele>1665.117</ele>
        <time>2020-08-26T06:57:45Z</time>
      </trkpt>
      <trkpt lat="44.69285" lon="5.98387">
        <ele>1665.346</ele>
        <time>2020-08-26T06:57:49Z</time>
      </trkpt>
      <trkpt lat="44.69279" lon="5.98398">
        <ele>1665.77</ele>
        <time>2020-08-26T06:58:04Z</time>
      </trkpt>
      <trkpt lat="44.69269" lon="5.98411">
        <ele>1667.032</ele>
        <time>2020-08-26T06:58:20Z</time>
      </trkpt>
      <trkpt lat="44.69263" lon="5.98427">
        <ele>1667.886</ele>
        <time>2020-08-26T06:58:34Z</time>
      </trkpt>
      <trkpt lat="44.69259" lon="5.98439">
        <ele>1668.21</ele>
        <time>2020-08-26T06:58:50Z</time>
      </trkpt>
      <trkpt lat="44.69252" lon="5.9844">
        <ele>1668.051</ele>
        <time>2020-08-26T06:59:06Z</time>
      </trkpt>
      <trkpt lat="44.69249" lon="5.9844">
        <ele>1668.006</ele>
        <time>2020-08-26T06:59:09Z</time>
      </trkpt>
      <trkpt lat="44.69248" lon="5.98441">
        <ele>1668.011</ele>
        <time>2020-08-26T06:59:10Z</time>
      </trkpt>
      <trkpt lat="44.69242" lon="5.98446">
        <ele>1667.946</ele>
        <time>2020-08-26T06:59:18Z</time>
      </trkpt>
      <trkpt lat="44.69234" lon="5.98458">
        <ele>1667.19</ele>
        <time>2020-08-26T06:59:34Z</time>
      </trkpt>
      <trkpt lat="44.69229" lon="5.98465">
        <ele>1666.325</ele>
        <time>2020-08-26T06:59:41Z</time>
      </trkpt>
      <trkpt lat="44.69228" lon="5.98465">
        <ele>1666.201</ele>
        <time>2020-08-26T06:59:42Z</time>
      </trkpt>
      <trkpt lat="44.69227" lon="5.98466">
        <ele>1666.073</ele>
        <time>2020-08-26T06:59:43Z</time>
      </trkpt>
      <trkpt lat="44.69217" lon="5.98469">
        <ele>1665.601</ele>
        <time>2020-08-26T06:59:56Z</time>
      </trkpt>
      <trkpt lat="44.69206" lon="5.98476">
        <ele>1665.203</ele>
        <time>2020-08-26T07:00:09Z</time>
      </trkpt>
      <trkpt lat="44.69205" lon="5.98477">
        <ele>1665.102</ele>
        <time>2020-08-26T07:00:10Z</time>
      </trkpt>
      <trkpt lat="44.69204" lon="5.98478">
        <ele>1664.982</ele>
        <time>2020-08-26T07:00:11Z</time>
      </trkpt>
      <trkpt lat="44.69202" lon="5.9848">
        <ele>1664.787</ele>
        <time>2020-08-26T07:00:13Z</time>
      </trkpt>
      <trkpt lat="44.69201" lon="5.98481">
        <ele>1664.709</ele>
        <time>2020-08-26T07:00:14Z</time>
      </trkpt>
      <trkpt lat="44.69187" lon="5.9849">
        <ele>1664.399</ele>
        <time>2020-08-26T07:00:29Z</time>
      </trkpt>
      <trkpt lat="44.69177" lon="5.98501">
        <ele>1664.503</ele>
        <time>2020-08-26T07:00:41Z</time>
      </trkpt>
      <trkpt lat="44.69166" lon="5.98514">
        <ele>1664.588</ele>
        <time>2020-08-26T07:00:55Z</time>
      </trkpt>
      <trkpt lat="44.69162" lon="5.98518">
        <ele>1664.374</ele>
        <time>2020-08-26T07:01:07Z</time>
      </trkpt>
      <trkpt lat="44.69161" lon="5.98523">
        <ele>1663.974</ele>
        <time>2020-08-26T07:01:12Z</time>
      </trkpt>
      <trkpt lat="44.6916" lon="5.98524">
        <ele>1663.945</ele>
        <time>2020-08-26T07:01:13Z</time>
      </trkpt>
      <trkpt lat="44.69158" lon="5.98526">
        <ele>1663.888</ele>
        <time>2020-08-26T07:01:16Z</time>
      </trkpt>
      <trkpt lat="44.69147" lon="5.98535">
        <ele>1663.678</ele>
        <time>2020-08-26T07:01:29Z</time>
      </trkpt>
      <trkpt lat="44.69145" lon="5.98537">
        <ele>1663.562</ele>
        <time>2020-08-26T07:01:31Z</time>
      </trkpt>
      <trkpt lat="44.69143" lon="5.98541">
        <ele>1663.314</ele>
        <time>2020-08-26T07:01:34Z</time>
      </trkpt>
      <trkpt lat="44.69142" lon="5.98542">
        <ele>1663.268</ele>
        <time>2020-08-26T07:01:35Z</time>
      </trkpt>
      <trkpt lat="44.69139" lon="5.98547">
        <ele>1662.884</ele>
        <time>2020-08-26T07:01:40Z</time>
      </trkpt>
      <trkpt lat="44.69133" lon="5.98564">
        <ele>1661.008</ele>
        <time>2020-08-26T07:01:54Z</time>
      </trkpt>
      <trkpt lat="44.69127" lon="5.98577">
        <ele>1658.658</ele>
        <time>2020-08-26T07:02:07Z</time>
      </trkpt>
      <trkpt lat="44.69123" lon="5.98582">
        <ele>1657.128</ele>
        <time>2020-08-26T07:02:24Z</time>
      </trkpt>
      <trkpt lat="44.69123" lon="5.98583">
        <ele>1656.92</ele>
        <time>2020-08-26T07:02:45Z</time>
      </trkpt>
      <trkpt lat="44.69126" lon="5.98585">
        <ele>1656.457</ele>
        <time>2020-08-26T07:03:13Z</time>
      </trkpt>
      <trkpt lat="44.69127" lon="5.98589">
        <ele>1655.298</ele>
        <time>2020-08-26T07:03:32Z</time>
      </trkpt>
      <trkpt lat="44.69128" lon="5.98589">
        <ele>1655.402</ele>
        <time>2020-08-26T07:03:35Z</time>
      </trkpt>
      <trkpt lat="44.69129" lon="5.98584">
        <ele>1657.021</ele>
        <time>2020-08-26T07:03:50Z</time>
      </trkpt>
      <trkpt lat="44.69128" lon="5.98587">
        <ele>1655.972</ele>
        <time>2020-08-26T07:04:07Z</time>
      </trkpt>
      <trkpt lat="44.6913" lon="5.98585">
        <ele>1656.917</ele>
        <time>2020-08-26T07:04:22Z</time>
      </trkpt>
      <trkpt lat="44.69135" lon="5.98565">
        <ele>1660.873</ele>
        <time>2020-08-26T07:04:38Z</time>
      </trkpt>
      <trkpt lat="44.69137" lon="5.98555">
        <ele>1662.26</ele>
        <time>2020-08-26T07:04:45Z</time>
      </trkpt>
      <trkpt lat="44.69144" lon="5.98542">
        <ele>1663.085</ele>
        <time>2020-08-26T07:04:58Z</time>
      </trkpt>
      <trkpt lat="44.69155" lon="5.98529">
        <ele>1663.668</ele>
        <time>2020-08-26T07:05:15Z</time>
      </trkpt>
      <trkpt lat="44.69168" lon="5.98511">
        <ele>1664.681</ele>
        <time>2020-08-26T07:05:37Z</time>
      </trkpt>
      <trkpt lat="44.6918" lon="5.985">
        <ele>1664.096</ele>
        <time>2020-08-26T07:05:59Z</time>
      </trkpt>
      <trkpt lat="44.69192" lon="5.98487">
        <ele>1664.124</ele>
        <time>2020-08-26T07:06:17Z</time>
      </trkpt>
      <trkpt lat="44.69193" lon="5.98486">
        <ele>1664.15</ele>
        <time>2020-08-26T07:06:18Z</time>
      </trkpt>
      <trkpt lat="44.69194" lon="5.98486">
        <ele>1664.113</ele>
        <time>2020-08-26T07:06:19Z</time>
      </trkpt>
      <trkpt lat="44.69205" lon="5.98475">
        <ele>1665.288</ele>
        <time>2020-08-26T07:06:36Z</time>
      </trkpt>
      <trkpt lat="44.69206" lon="5.98473">
        <ele>1665.468</ele>
        <time>2020-08-26T07:06:38Z</time>
      </trkpt>
      <trkpt lat="44.69207" lon="5.98472">
        <ele>1665.523</ele>
        <time>2020-08-26T07:06:39Z</time>
      </trkpt>
      <trkpt lat="44.6921" lon="5.98471">
        <ele>1665.618</ele>
        <time>2020-08-26T07:06:43Z</time>
      </trkpt>
      <trkpt lat="44.69211" lon="5.9847">
        <ele>1665.661</ele>
        <time>2020-08-26T07:06:44Z</time>
      </trkpt>
      <trkpt lat="44.69225" lon="5.98465">
        <ele>1666.018</ele>
        <time>2020-08-26T07:07:00Z</time>
      </trkpt>
      <trkpt lat="44.69235" lon="5.98457">
        <ele>1667.237</ele>
        <time>2020-08-26T07:07:15Z</time>
      </trkpt>
      <trkpt lat="44.69238" lon="5.98457">
        <ele>1667.428</ele>
        <time>2020-08-26T07:07:19Z</time>
      </trkpt>
      <trkpt lat="44.69241" lon="5.98458">
        <ele>1667.554</ele>
        <time>2020-08-26T07:07:24Z</time>
      </trkpt>
      <trkpt lat="44.69247" lon="5.98452">
        <ele>1667.904</ele>
        <time>2020-08-26T07:07:32Z</time>
      </trkpt>
      <trkpt lat="44.69256" lon="5.98437">
        <ele>1668.102</ele>
        <time>2020-08-26T07:07:48Z</time>
      </trkpt>
      <trkpt lat="44.69259" lon="5.9844">
        <ele>1668.236</ele>
        <time>2020-08-26T07:07:54Z</time>
      </trkpt>
      <trkpt lat="44.69265" lon="5.98427">
        <ele>1667.875</ele>
        <time>2020-08-26T07:08:10Z</time>
      </trkpt>
      <trkpt lat="44.69277" lon="5.98404">
        <ele>1666.116</ele>
        <time>2020-08-26T07:08:30Z</time>
      </trkpt>
      <trkpt lat="44.69282" lon="5.98402">
        <ele>1666.467</ele>
        <time>2020-08-26T07:08:37Z</time>
      </trkpt>
      <trkpt lat="44.69284" lon="5.98401">
        <ele>1666.579</ele>
        <time>2020-08-26T07:08:39Z</time>
      </trkpt>
      <trkpt lat="44.6929" lon="5.984">
        <ele>1667.199</ele>
        <time>2020-08-26T07:08:49Z</time>
      </trkpt>
      <trkpt lat="44.69293" lon="5.98399">
        <ele>1667.453</ele>
        <time>2020-08-26T07:08:51Z</time>
      </trkpt>
      <trkpt lat="44.693" lon="5.98398">
        <ele>1668.055</ele>
        <time>2020-08-26T07:09:00Z</time>
      </trkpt>
      <trkpt lat="44.69307" lon="5.98395">
        <ele>1668.401</ele>
        <time>2020-08-26T07:09:10Z</time>
      </trkpt>
      <trkpt lat="44.69317" lon="5.98381">
        <ele>1668.737</ele>
        <time>2020-08-26T07:09:28Z</time>
      </trkpt>
      <trkpt lat="44.6933" lon="5.98369">
        <ele>1669.685</ele>
        <time>2020-08-26T07:09:47Z</time>
      </trkpt>
      <trkpt lat="44.69334" lon="5.98369">
        <ele>1670.979</ele>
        <time>2020-08-26T07:09:58Z</time>
      </trkpt>
      <trkpt lat="44.69334" lon="5.98371">
        <ele>1671.455</ele>
        <time>2020-08-26T07:10:00Z</time>
      </trkpt>
      <trkpt lat="44.69338" lon="5.98368">
        <ele>1672.21</ele>
        <time>2020-08-26T07:10:11Z</time>
      </trkpt>
      <trkpt lat="44.69343" lon="5.98373">
        <ele>1674.727</ele>
        <time>2020-08-26T07:10:22Z</time>
      </trkpt>
      <trkpt lat="44.69352" lon="5.98374">
        <ele>1678.22</ele>
        <time>2020-08-26T07:10:40Z</time>
      </trkpt>
      <trkpt lat="44.69357" lon="5.98375">
        <ele>1680.067</ele>
        <time>2020-08-26T07:10:55Z</time>
      </trkpt>
      <trkpt lat="44.69367" lon="5.98369">
        <ele>1682.471</ele>
        <time>2020-08-26T07:11:12Z</time>
      </trkpt>
      <trkpt lat="44.69379" lon="5.98364">
        <ele>1686.479</ele>
        <time>2020-08-26T07:11:29Z</time>
      </trkpt>
      <trkpt lat="44.69389" lon="5.98355">
        <ele>1688.182</ele>
        <time>2020-08-26T07:11:47Z</time>
      </trkpt>
      <trkpt lat="44.69388" lon="5.98349">
        <ele>1686.036</ele>
        <time>2020-08-26T07:12:07Z</time>
      </trkpt>
      <trkpt lat="44.69391" lon="5.98345">
        <ele>1686.41</ele>
        <time>2020-08-26T07:12:24Z</time>
      </trkpt>
      <trkpt lat="44.69401" lon="5.98339">
        <ele>1689.088</ele>
        <time>2020-08-26T07:12:39Z</time>
      </trkpt>
      <trkpt lat="44.69405" lon="5.98329">
        <ele>1688.351</ele>
        <time>2020-08-26T07:12:54Z</time>
      </trkpt>
      <trkpt lat="44.69411" lon="5.98324">
        <ele>1689.708</ele>
        <time>2020-08-26T07:13:09Z</time>
      </trkpt>
      <trkpt lat="44.69418" lon="5.98318">
        <ele>1691.13</ele>
        <time>2020-08-26T07:13:25Z</time>
      </trkpt>
      <trkpt lat="44.69425" lon="5.98311">
        <ele>1692.948</ele>
        <time>2020-08-26T07:13:41Z</time>
      </trkpt>
      <trkpt lat="44.69428" lon="5.98304">
        <ele>1692.925</ele>
        <time>2020-08-26T07:14:02Z</time>
      </trkpt>
      <trkpt lat="44.69442" lon="5.98299">
        <ele>1698.79</ele>
        <time>2020-08-26T07:14:23Z</time>
      </trkpt>
      <trkpt lat="44.69442" lon="5.98287">
        <ele>1694.7</ele>
        <time>2020-08-26T07:14:38Z</time>
      </trkpt>
      <trkpt lat="44.69443" lon="5.98284">
        <ele>1694.15</ele>
        <time>2020-08-26T07:14:57Z</time>
      </trkpt>
      <trkpt lat="44.69447" lon="5.98279">
        <ele>1694.77</ele>
        <time>2020-08-26T07:15:14Z</time>
      </trkpt>
      <trkpt lat="44.69448" lon="5.98277">
        <ele>1694.342</ele>
        <time>2020-08-26T07:15:39Z</time>
      </trkpt>
      <trkpt lat="44.69452" lon="5.98275">
        <ele>1695.915</ele>
        <time>2020-08-26T07:15:56Z</time>
      </trkpt>
      <trkpt lat="44.69455" lon="5.98272">
        <ele>1696.851</ele>
        <time>2020-08-26T07:16:14Z</time>
      </trkpt>
      <trkpt lat="44.69459" lon="5.98269">
        <ele>1697.477</ele>
        <time>2020-08-26T07:16:31Z</time>
      </trkpt>
      <trkpt lat="44.69461" lon="5.98264">
        <ele>1696.943</ele>
        <time>2020-08-26T07:16:49Z</time>
      </trkpt>
      <trkpt lat="44.69465" lon="5.98261">
        <ele>1697.617</ele>
        <time>2020-08-26T07:17:09Z</time>
      </trkpt>
      <trkpt lat="44.6947" lon="5.98257">
        <ele>1698.472</ele>
        <time>2020-08-26T07:17:28Z</time>
      </trkpt>
      <trkpt lat="44.69469" lon="5.98257">
        <ele>1698.421</ele>
        <time>2020-08-26T07:17:31Z</time>
      </trkpt>
      <trkpt lat="44.69472" lon="5.98257">
        <ele>1699.554</ele>
        <time>2020-08-26T07:17:51Z</time>
      </trkpt>
      <trkpt lat="44.69479" lon="5.98258">
        <ele>1702.826</ele>
        <time>2020-08-26T07:18:10Z</time>
      </trkpt>
      <trkpt lat="44.69481" lon="5.98261">
        <ele>1704.992</ele>
        <time>2020-08-26T07:18:26Z</time>
      </trkpt>
      <trkpt lat="44.69483" lon="5.9826">
        <ele>1705.554</ele>
        <time>2020-08-26T07:18:46Z</time>
      </trkpt>
      <trkpt lat="44.69486" lon="5.98257">
        <ele>1706.237</ele>
        <time>2020-08-26T07:19:03Z</time>
      </trkpt>
      <trkpt lat="44.69492" lon="5.98255">
        <ele>1708.101</ele>
        <time>2020-08-26T07:19:18Z</time>
      </trkpt>
      <trkpt lat="44.69496" lon="5.98258">
        <ele>1711.147</ele>
        <time>2020-08-26T07:19:35Z</time>
      </trkpt>
      <trkpt lat="44.69496" lon="5.98258">
        <ele>1711.08</ele>
        <time>2020-08-26T07:19:52Z</time>
      </trkpt>
      <trkpt lat="44.69503" lon="5.98257">
        <ele>1713.885</ele>
        <time>2020-08-26T07:20:10Z</time>
      </trkpt>
      <trkpt lat="44.69509" lon="5.98257">
        <ele>1716.477</ele>
        <time>2020-08-26T07:20:26Z</time>
      </trkpt>
      <trkpt lat="44.6951" lon="5.98258">
        <ele>1717.309</ele>
        <time>2020-08-26T07:20:33Z</time>
      </trkpt>
      <trkpt lat="44.69513" lon="5.98257">
        <ele>1718.162</ele>
        <time>2020-08-26T07:20:51Z</time>
      </trkpt>
      <trkpt lat="44.69521" lon="5.98254">
        <ele>1720.484</ele>
        <time>2020-08-26T07:21:09Z</time>
      </trkpt>
      <trkpt lat="44.69523" lon="5.98253">
        <ele>1721.261</ele>
        <time>2020-08-26T07:21:28Z</time>
      </trkpt>
      <trkpt lat="44.69528" lon="5.9825">
        <ele>1722.192</ele>
        <time>2020-08-26T07:21:43Z</time>
      </trkpt>
      <trkpt lat="44.69532" lon="5.98255">
        <ele>1725.541</ele>
        <time>2020-08-26T07:22:05Z</time>
      </trkpt>
      <trkpt lat="44.69538" lon="5.98258">
        <ele>1728.335</ele>
        <time>2020-08-26T07:22:20Z</time>
      </trkpt>
      <trkpt lat="44.69538" lon="5.98259">
        <ele>1728.881</ele>
        <time>2020-08-26T07:22:41Z</time>
      </trkpt>
      <trkpt lat="44.69542" lon="5.98265">
        <ele>1732.775</ele>
        <time>2020-08-26T07:22:55Z</time>
      </trkpt>
      <trkpt lat="44.69544" lon="5.98266">
        <ele>1733.765</ele>
        <time>2020-08-26T07:23:12Z</time>
      </trkpt>
      <trkpt lat="44.69546" lon="5.98268">
        <ele>1735.428</ele>
        <time>2020-08-26T07:23:30Z</time>
      </trkpt>
      <trkpt lat="44.69546" lon="5.98269">
        <ele>1735.976</ele>
        <time>2020-08-26T07:23:32Z</time>
      </trkpt>
      <trkpt lat="44.69547" lon="5.98273">
        <ele>1737.975</ele>
        <time>2020-08-26T07:23:50Z</time>
      </trkpt>
      <trkpt lat="44.6955" lon="5.98274">
        <ele>1739.206</ele>
        <time>2020-08-26T07:24:05Z</time>
      </trkpt>
      <trkpt lat="44.69556" lon="5.98279">
        <ele>1743.831</ele>
        <time>2020-08-26T07:24:21Z</time>
      </trkpt>
      <trkpt lat="44.6956" lon="5.98284">
        <ele>1746.346</ele>
        <time>2020-08-26T07:24:37Z</time>
      </trkpt>
      <trkpt lat="44.69562" lon="5.98287">
        <ele>1747.556</ele>
        <time>2020-08-26T07:24:54Z</time>
      </trkpt>
      <trkpt lat="44.69563" lon="5.98287">
        <ele>1748.039</ele>
        <time>2020-08-26T07:25:12Z</time>
      </trkpt>
      <trkpt lat="44.69565" lon="5.98289">
        <ele>1749.068</ele>
        <time>2020-08-26T07:25:30Z</time>
      </trkpt>
      <trkpt lat="44.69566" lon="5.98294">
        <ele>1751.576</ele>
        <time>2020-08-26T07:25:44Z</time>
      </trkpt>
      <trkpt lat="44.69569" lon="5.98304">
        <ele>1756.541</ele>
        <time>2020-08-26T07:26:00Z</time>
      </trkpt>
      <trkpt lat="44.69568" lon="5.98308">
        <ele>1758.038</ele>
        <time>2020-08-26T07:26:17Z</time>
      </trkpt>
      <trkpt lat="44.69571" lon="5.98311">
        <ele>1759.947</ele>
        <time>2020-08-26T07:26:34Z</time>
      </trkpt>
      <trkpt lat="44.69574" lon="5.98315">
        <ele>1762.12</ele>
        <time>2020-08-26T07:26:50Z</time>
      </trkpt>
      <trkpt lat="44.69574" lon="5.98319">
        <ele>1763.515</ele>
        <time>2020-08-26T07:27:07Z</time>
      </trkpt>
      <trkpt lat="44.6958" lon="5.98322">
        <ele>1765.577</ele>
        <time>2020-08-26T07:27:24Z</time>
      </trkpt>
      <trkpt lat="44.69582" lon="5.98322">
        <ele>1765.654</ele>
        <time>2020-08-26T07:27:42Z</time>
      </trkpt>
      <trkpt lat="44.69584" lon="5.98325">
        <ele>1766.889</ele>
        <time>2020-08-26T07:27:56Z</time>
      </trkpt>
      <trkpt lat="44.69584" lon="5.98328">
        <ele>1767.732</ele>
        <time>2020-08-26T07:28:17Z</time>
      </trkpt>
      <trkpt lat="44.69584" lon="5.98334">
        <ele>1769.805</ele>
        <time>2020-08-26T07:28:32Z</time>
      </trkpt>
      <trkpt lat="44.69584" lon="5.9834">
        <ele>1771.323</ele>
        <time>2020-08-26T07:28:45Z</time>
      </trkpt>
      <trkpt lat="44.69583" lon="5.98349">
        <ele>1773.87</ele>
        <time>2020-08-26T07:29:01Z</time>
      </trkpt>
      <trkpt lat="44.69584" lon="5.98356">
        <ele>1775.257</ele>
        <time>2020-08-26T07:29:23Z</time>
      </trkpt>
      <trkpt lat="44.69584" lon="5.98365">
        <ele>1777.574</ele>
        <time>2020-08-26T07:29:40Z</time>
      </trkpt>
      <trkpt lat="44.69585" lon="5.98373">
        <ele>1779.433</ele>
        <time>2020-08-26T07:29:56Z</time>
      </trkpt>
      <trkpt lat="44.69588" lon="5.98387">
        <ele>1781.327</ele>
        <time>2020-08-26T07:30:14Z</time>
      </trkpt>
      <trkpt lat="44.69591" lon="5.98395">
        <ele>1782.393</ele>
        <time>2020-08-26T07:30:29Z</time>
      </trkpt>
      <trkpt lat="44.69592" lon="5.98404">
        <ele>1784.469</ele>
        <time>2020-08-26T07:30:49Z</time>
      </trkpt>
      <trkpt lat="44.69589" lon="5.9841">
        <ele>1787.555</ele>
        <time>2020-08-26T07:31:04Z</time>
      </trkpt>
      <trkpt lat="44.69586" lon="5.98417">
        <ele>1790.794</ele>
        <time>2020-08-26T07:31:21Z</time>
      </trkpt>
      <trkpt lat="44.69586" lon="5.98419">
        <ele>1791.487</ele>
        <time>2020-08-26T07:31:41Z</time>
      </trkpt>
      <trkpt lat="44.69587" lon="5.98423">
        <ele>1792.253</ele>
        <time>2020-08-26T07:32:05Z</time>
      </trkpt>
      <trkpt lat="44.69589" lon="5.98432">
        <ele>1793.733</ele>
        <time>2020-08-26T07:32:22Z</time>
      </trkpt>
      <trkpt lat="44.69587" lon="5.98437">
        <ele>1796.227</ele>
        <time>2020-08-26T07:32:37Z</time>
      </trkpt>
      <trkpt lat="44.69589" lon="5.98447">
        <ele>1798.072</ele>
        <time>2020-08-26T07:32:54Z</time>
      </trkpt>
      <trkpt lat="44.69589" lon="5.98454">
        <ele>1800.118</ele>
        <time>2020-08-26T07:33:09Z</time>
      </trkpt>
      <trkpt lat="44.6959" lon="5.98459">
        <ele>1801.293</ele>
        <time>2020-08-26T07:33:24Z</time>
      </trkpt>
      <trkpt lat="44.69589" lon="5.98463">
        <ele>1803.172</ele>
        <time>2020-08-26T07:33:39Z</time>
      </trkpt>
      <trkpt lat="44.69584" lon="5.98468">
        <ele>1807.234</ele>
        <time>2020-08-26T07:33:58Z</time>
      </trkpt>
      <trkpt lat="44.69583" lon="5.98471">
        <ele>1808.815</ele>
        <time>2020-08-26T07:34:13Z</time>
      </trkpt>
      <trkpt lat="44.6958" lon="5.98474">
        <ele>1809.924</ele>
        <time>2020-08-26T07:34:27Z</time>
      </trkpt>
      <trkpt lat="44.6958" lon="5.98477">
        <ele>1810.796</ele>
        <time>2020-08-26T07:34:40Z</time>
      </trkpt>
      <trkpt lat="44.69578" lon="5.98481">
        <ele>1812.247</ele>
        <time>2020-08-26T07:34:55Z</time>
      </trkpt>
      <trkpt lat="44.69574" lon="5.98484">
        <ele>1813.701</ele>
        <time>2020-08-26T07:35:12Z</time>
      </trkpt>
      <trkpt lat="44.69571" lon="5.9849">
        <ele>1815.961</ele>
        <time>2020-08-26T07:35:31Z</time>
      </trkpt>
      <trkpt lat="44.69569" lon="5.98492">
        <ele>1816.814</ele>
        <time>2020-08-26T07:35:45Z</time>
      </trkpt>
      <trkpt lat="44.69569" lon="5.98498">
        <ele>1818.567</ele>
        <time>2020-08-26T07:35:58Z</time>
      </trkpt>
      <trkpt lat="44.69571" lon="5.98504">
        <ele>1820.024</ele>
        <time>2020-08-26T07:36:16Z</time>
      </trkpt>
      <trkpt lat="44.69569" lon="5.98509">
        <ele>1821.652</ele>
        <time>2020-08-26T07:36:30Z</time>
      </trkpt>
      <trkpt lat="44.69568" lon="5.9851">
        <ele>1822.177</ele>
        <time>2020-08-26T07:36:42Z</time>
      </trkpt>
      <trkpt lat="44.69567" lon="5.98512">
        <ele>1823.212</ele>
        <time>2020-08-26T07:36:59Z</time>
      </trkpt>
      <trkpt lat="44.69569" lon="5.98515">
        <ele>1823.472</ele>
        <time>2020-08-26T07:37:24Z</time>
      </trkpt>
      <trkpt lat="44.6957" lon="5.98525">
        <ele>1826.289</ele>
        <time>2020-08-26T07:37:39Z</time>
      </trkpt>
      <trkpt lat="44.6957" lon="5.98535">
        <ele>1828.856</ele>
        <time>2020-08-26T07:37:55Z</time>
      </trkpt>
      <trkpt lat="44.6957" lon="5.98537">
        <ele>1829.422</ele>
        <time>2020-08-26T07:38:00Z</time>
      </trkpt>
      <trkpt lat="44.69571" lon="5.98546">
        <ele>1831.807</ele>
        <time>2020-08-26T07:38:17Z</time>
      </trkpt>
      <trkpt lat="44.69571" lon="5.98551">
        <ele>1833.504</ele>
        <time>2020-08-26T07:38:34Z</time>
      </trkpt>
      <trkpt lat="44.6957" lon="5.98553">
        <ele>1834.09</ele>
        <time>2020-08-26T07:38:51Z</time>
      </trkpt>
      <trkpt lat="44.69571" lon="5.9856">
        <ele>1835.869</ele>
        <time>2020-08-26T07:39:09Z</time>
      </trkpt>
      <trkpt lat="44.6957" lon="5.98567">
        <ele>1838.228</ele>
        <time>2020-08-26T07:39:26Z</time>
      </trkpt>
      <trkpt lat="44.69569" lon="5.98575">
        <ele>1840.581</ele>
        <time>2020-08-26T07:39:42Z</time>
      </trkpt>
      <trkpt lat="44.69568" lon="5.98579">
        <ele>1841.978</ele>
        <time>2020-08-26T07:39:59Z</time>
      </trkpt>
      <trkpt lat="44.69567" lon="5.98586">
        <ele>1844.453</ele>
        <time>2020-08-26T07:40:23Z</time>
      </trkpt>
      <trkpt lat="44.69567" lon="5.98587">
        <ele>1844.721</ele>
        <time>2020-08-26T07:40:26Z</time>
      </trkpt>
      <trkpt lat="44.69566" lon="5.98586">
        <ele>1844.893</ele>
        <time>2020-08-26T07:40:50Z</time>
      </trkpt>
      <trkpt lat="44.69566" lon="5.98584">
        <ele>1844.297</ele>
        <time>2020-08-26T07:41:00Z</time>
      </trkpt>
      <trkpt lat="44.69566" lon="5.98585">
        <ele>1844.368</ele>
        <time>2020-08-26T07:41:19Z</time>
      </trkpt>
      <trkpt lat="44.69566" lon="5.98592">
        <ele>1846.208</ele>
        <time>2020-08-26T07:41:37Z</time>
      </trkpt>
      <trkpt lat="44.69565" lon="5.98596">
        <ele>1847.529</ele>
        <time>2020-08-26T07:42:00Z</time>
      </trkpt>
      <trkpt lat="44.69564" lon="5.98604">
        <ele>1849.883</ele>
        <time>2020-08-26T07:42:18Z</time>
      </trkpt>
      <trkpt lat="44.69564" lon="5.9861">
        <ele>1851.559</ele>
        <time>2020-08-26T07:42:33Z</time>
      </trkpt>
      <trkpt lat="44.69566" lon="5.98621">
        <ele>1854.253</ele>
        <time>2020-08-26T07:42:51Z</time>
      </trkpt>
      <trkpt lat="44.69566" lon="5.98626">
        <ele>1855.629</ele>
        <time>2020-08-26T07:43:02Z</time>
      </trkpt>
      <trkpt lat="44.69566" lon="5.98633">
        <ele>1857.874</ele>
        <time>2020-08-26T07:43:17Z</time>
      </trkpt>
      <trkpt lat="44.69566" lon="5.9864">
        <ele>1859.63</ele>
        <time>2020-08-26T07:43:32Z</time>
      </trkpt>
      <trkpt lat="44.69567" lon="5.98644">
        <ele>1860.49</ele>
        <time>2020-08-26T07:43:50Z</time>
      </trkpt>
      <trkpt lat="44.69567" lon="5.98651">
        <ele>1862.192</ele>
        <time>2020-08-26T07:44:06Z</time>
      </trkpt>
      <trkpt lat="44.69568" lon="5.98663">
        <ele>1865.283</ele>
        <time>2020-08-26T07:44:25Z</time>
      </trkpt>
      <trkpt lat="44.69568" lon="5.98666">
        <ele>1866.123</ele>
        <time>2020-08-26T07:44:30Z</time>
      </trkpt>
      <trkpt lat="44.69569" lon="5.98674">
        <ele>1868.456</ele>
        <time>2020-08-26T07:44:45Z</time>
      </trkpt>
      <trkpt lat="44.69569" lon="5.98679">
        <ele>1869.736</ele>
        <time>2020-08-26T07:44:52Z</time>
      </trkpt>
      <trkpt lat="44.69568" lon="5.98687">
        <ele>1872.265</ele>
        <time>2020-08-26T07:45:07Z</time>
      </trkpt>
      <trkpt lat="44.69571" lon="5.98695">
        <ele>1874.623</ele>
        <time>2020-08-26T07:45:26Z</time>
      </trkpt>
      <trkpt lat="44.69571" lon="5.98696">
        <ele>1874.708</ele>
        <time>2020-08-26T07:45:27Z</time>
      </trkpt>
      <trkpt lat="44.69571" lon="5.98709">
        <ele>1878.364</ele>
        <time>2020-08-26T07:45:46Z</time>
      </trkpt>
      <trkpt lat="44.69572" lon="5.98717">
        <ele>1880.493</ele>
        <time>2020-08-26T07:46:05Z</time>
      </trkpt>
      <trkpt lat="44.69572" lon="5.98724">
        <ele>1882.244</ele>
        <time>2020-08-26T07:46:26Z</time>
      </trkpt>
      <trkpt lat="44.69572" lon="5.98733">
        <ele>1884.654</ele>
        <time>2020-08-26T07:46:41Z</time>
      </trkpt>
      <trkpt lat="44.69571" lon="5.98741">
        <ele>1886.922</ele>
        <time>2020-08-26T07:46:57Z</time>
      </trkpt>
      <trkpt lat="44.69572" lon="5.98751">
        <ele>1889.184</ele>
        <time>2020-08-26T07:47:13Z</time>
      </trkpt>
      <trkpt lat="44.69572" lon="5.98758">
        <ele>1890.228</ele>
        <time>2020-08-26T07:47:29Z</time>
      </trkpt>
      <trkpt lat="44.69572" lon="5.98763">
        <ele>1891.171</ele>
        <time>2020-08-26T07:47:44Z</time>
      </trkpt>
      <trkpt lat="44.69573" lon="5.9877">
        <ele>1892.342</ele>
        <time>2020-08-26T07:48:06Z</time>
      </trkpt>
      <trkpt lat="44.69575" lon="5.9878">
        <ele>1893.703</ele>
        <time>2020-08-26T07:48:19Z</time>
      </trkpt>
      <trkpt lat="44.69575" lon="5.9879">
        <ele>1893.749</ele>
        <time>2020-08-26T07:48:37Z</time>
      </trkpt>
      <trkpt lat="44.6958" lon="5.98797">
        <ele>1895.922</ele>
        <time>2020-08-26T07:48:52Z</time>
      </trkpt>
      <trkpt lat="44.69585" lon="5.988">
        <ele>1897.491</ele>
        <time>2020-08-26T07:49:09Z</time>
      </trkpt>
      <trkpt lat="44.6959" lon="5.98812">
        <ele>1895.698</ele>
        <time>2020-08-26T07:49:27Z</time>
      </trkpt>
      <trkpt lat="44.69593" lon="5.98825">
        <ele>1894.168</ele>
        <time>2020-08-26T07:49:42Z</time>
      </trkpt>
      <trkpt lat="44.69592" lon="5.98827">
        <ele>1894.057</ele>
        <time>2020-08-26T07:50:07Z</time>
      </trkpt>
      <trkpt lat="44.69592" lon="5.98827">
        <ele>1894.112</ele>
        <time>2020-08-26T07:50:32Z</time>
      </trkpt>
      <trkpt lat="44.69592" lon="5.98825">
        <ele>1894.174</ele>
        <time>2020-08-26T07:51:03Z</time>
      </trkpt>
      <trkpt lat="44.6959" lon="5.98822">
        <ele>1894.645</ele>
        <time>2020-08-26T07:51:23Z</time>
      </trkpt>
      <trkpt lat="44.69593" lon="5.98823">
        <ele>1894.258</ele>
        <time>2020-08-26T07:51:39Z</time>
      </trkpt>
      <trkpt lat="44.69592" lon="5.98824">
        <ele>1894.301</ele>
        <time>2020-08-26T07:51:55Z</time>
      </trkpt>
      <trkpt lat="44.69591" lon="5.98824">
        <ele>1894.345</ele>
        <time>2020-08-26T07:52:13Z</time>
      </trkpt>
      <trkpt lat="44.69592" lon="5.98824">
        <ele>1894.285</ele>
        <time>2020-08-26T07:52:29Z</time>
      </trkpt>
      <trkpt lat="44.69593" lon="5.98824">
        <ele>1894.183</ele>
        <time>2020-08-26T07:52:44Z</time>
      </trkpt>
      <trkpt lat="44.69593" lon="5.98823">
        <ele>1894.209</ele>
        <time>2020-08-26T07:53:06Z</time>
      </trkpt>
      <trkpt lat="44.69592" lon="5.98823">
        <ele>1894.372</ele>
        <time>2020-08-26T07:53:24Z</time>
      </trkpt>
      <trkpt lat="44.69592" lon="5.98825">
        <ele>1894.162</ele>
        <time>2020-08-26T07:53:33Z</time>
      </trkpt>
      <trkpt lat="44.69592" lon="5.98825">
        <ele>1894.188</ele>
        <time>2020-08-26T07:53:58Z</time>
      </trkpt>
      <trkpt lat="44.69589" lon="5.98825">
        <ele>1894.429</ele>
        <time>2020-08-26T07:54:25Z</time>
      </trkpt>
      <trkpt lat="44.69593" lon="5.98823">
        <ele>1894.272</ele>
        <time>2020-08-26T07:54:47Z</time>
      </trkpt>
      <trkpt lat="44.69592" lon="5.98824">
        <ele>1894.212</ele>
        <time>2020-08-26T07:55:15Z</time>
      </trkpt>
      <trkpt lat="44.69593" lon="5.98824">
        <ele>1894.176</ele>
        <time>2020-08-26T07:55:35Z</time>
      </trkpt>
      <trkpt lat="44.69597" lon="5.98828">
        <ele>1893.916</ele>
        <time>2020-08-26T07:55:56Z</time>
      </trkpt>
      <trkpt lat="44.69603" lon="5.98834">
        <ele>1894.314</ele>
        <time>2020-08-26T07:56:16Z</time>
      </trkpt>
      <trkpt lat="44.69609" lon="5.98844">
        <ele>1894.327</ele>
        <time>2020-08-26T07:56:33Z</time>
      </trkpt>
      <trkpt lat="44.69617" lon="5.98852">
        <ele>1893.244</ele>
        <time>2020-08-26T07:56:48Z</time>
      </trkpt>
      <trkpt lat="44.69624" lon="5.98863">
        <ele>1891.691</ele>
        <time>2020-08-26T07:57:07Z</time>
      </trkpt>
      <trkpt lat="44.69629" lon="5.98869">
        <ele>1889.414</ele>
        <time>2020-08-26T07:57:25Z</time>
      </trkpt>
      <trkpt lat="44.69635" lon="5.98874">
        <ele>1888.678</ele>
        <time>2020-08-26T07:57:44Z</time>
      </trkpt>
      <trkpt lat="44.69639" lon="5.98877">
        <ele>1888.981</ele>
        <time>2020-08-26T07:58:02Z</time>
      </trkpt>
      <trkpt lat="44.69642" lon="5.98878">
        <ele>1887.703</ele>
        <time>2020-08-26T07:58:19Z</time>
      </trkpt>
      <trkpt lat="44.69649" lon="5.98885">
        <ele>1885.686</ele>
        <time>2020-08-26T07:58:36Z</time>
      </trkpt>
      <trkpt lat="44.69658" lon="5.98893">
        <ele>1883.159</ele>
        <time>2020-08-26T07:58:56Z</time>
      </trkpt>
      <trkpt lat="44.69661" lon="5.98894">
        <ele>1882.357</ele>
        <time>2020-08-26T07:59:15Z</time>
      </trkpt>
      <trkpt lat="44.69663" lon="5.98896">
        <ele>1881.938</ele>
        <time>2020-08-26T07:59:30Z</time>
      </trkpt>
      <trkpt lat="44.69666" lon="5.98901">
        <ele>1881.483</ele>
        <time>2020-08-26T07:59:45Z</time>
      </trkpt>
      <trkpt lat="44.69671" lon="5.98906">
        <ele>1879.829</ele>
        <time>2020-08-26T08:00:02Z</time>
      </trkpt>
      <trkpt lat="44.69675" lon="5.98907">
        <ele>1877.94</ele>
        <time>2020-08-26T08:00:19Z</time>
      </trkpt>
      <trkpt lat="44.69683" lon="5.98916">
        <ele>1875.816</ele>
        <time>2020-08-26T08:00:38Z</time>
      </trkpt>
      <trkpt lat="44.69691" lon="5.98923">
        <ele>1873.904</ele>
        <time>2020-08-26T08:00:57Z</time>
      </trkpt>
      <trkpt lat="44.69697" lon="5.98933">
        <ele>1873.684</ele>
        <time>2020-08-26T08:01:16Z</time>
      </trkpt>
      <trkpt lat="44.697" lon="5.98936">
        <ele>1873.307</ele>
        <time>2020-08-26T08:01:21Z</time>
      </trkpt>
      <trkpt lat="44.69709" lon="5.9895">
        <ele>1871.142</ele>
        <time>2020-08-26T08:01:40Z</time>
      </trkpt>
      <trkpt lat="44.69717" lon="5.98962">
        <ele>1869.356</ele>
        <time>2020-08-26T08:01:55Z</time>
      </trkpt>
      <trkpt lat="44.69725" lon="5.98975">
        <ele>1868.829</ele>
        <time>2020-08-26T08:02:10Z</time>
      </trkpt>
      <trkpt lat="44.69732" lon="5.98986">
        <ele>1866.422</ele>
        <time>2020-08-26T08:02:25Z</time>
      </trkpt>
      <trkpt lat="44.69734" lon="5.98989">
        <ele>1866.035</ele>
        <time>2020-08-26T08:02:46Z</time>
      </trkpt>
      <trkpt lat="44.69739" lon="5.98997">
        <ele>1865.819</ele>
        <time>2020-08-26T08:03:08Z</time>
      </trkpt>
      <trkpt lat="44.69745" lon="5.99004">
        <ele>1864.521</ele>
        <time>2020-08-26T08:03:26Z</time>
      </trkpt>
      <trkpt lat="44.69749" lon="5.99006">
        <ele>1864.318</ele>
        <time>2020-08-26T08:03:37Z</time>
      </trkpt>
      <trkpt lat="44.69755" lon="5.99001">
        <ele>1863.885</ele>
        <time>2020-08-26T08:03:49Z</time>
      </trkpt>
      <trkpt lat="44.6976" lon="5.99002">
        <ele>1862.266</ele>
        <time>2020-08-26T08:03:56Z</time>
      </trkpt>
      <trkpt lat="44.69769" lon="5.99009">
        <ele>1859.085</ele>
        <time>2020-08-26T08:04:11Z</time>
      </trkpt>
      <trkpt lat="44.69771" lon="5.99011">
        <ele>1858.622</ele>
        <time>2020-08-26T08:04:14Z</time>
      </trkpt>
      <trkpt lat="44.69779" lon="5.99018">
        <ele>1857.414</ele>
        <time>2020-08-26T08:04:28Z</time>
      </trkpt>
      <trkpt lat="44.69786" lon="5.99026">
        <ele>1855.946</ele>
        <time>2020-08-26T08:04:43Z</time>
      </trkpt>
      <trkpt lat="44.69791" lon="5.99027">
        <ele>1854.622</ele>
        <time>2020-08-26T08:04:59Z</time>
      </trkpt>
      <trkpt lat="44.69798" lon="5.99031">
        <ele>1851.52</ele>
        <time>2020-08-26T08:05:19Z</time>
      </trkpt>
      <trkpt lat="44.69801" lon="5.99032">
        <ele>1850.392</ele>
        <time>2020-08-26T08:05:36Z</time>
      </trkpt>
      <trkpt lat="44.69805" lon="5.99036">
        <ele>1848.453</ele>
        <time>2020-08-26T08:05:51Z</time>
      </trkpt>
      <trkpt lat="44.69808" lon="5.99036">
        <ele>1847.486</ele>
        <time>2020-08-26T08:06:07Z</time>
      </trkpt>
      <trkpt lat="44.69814" lon="5.99039">
        <ele>1845.826</ele>
        <time>2020-08-26T08:06:22Z</time>
      </trkpt>
      <trkpt lat="44.69819" lon="5.99042">
        <ele>1844.357</ele>
        <time>2020-08-26T08:06:37Z</time>
      </trkpt>
      <trkpt lat="44.69827" lon="5.99043">
        <ele>1842.735</ele>
        <time>2020-08-26T08:06:52Z</time>
      </trkpt>
      <trkpt lat="44.69833" lon="5.99045">
        <ele>1841.747</ele>
        <time>2020-08-26T08:07:01Z</time>
      </trkpt>
      <trkpt lat="44.69833" lon="5.99045">
        <ele>1841.715</ele>
        <time>2020-08-26T08:07:02Z</time>
      </trkpt>
      <trkpt lat="44.69833" lon="5.99044">
        <ele>1841.548</ele>
        <time>2020-08-26T08:07:05Z</time>
      </trkpt>
      <trkpt lat="44.6984" lon="5.99046">
        <ele>1839.441</ele>
        <time>2020-08-26T08:07:16Z</time>
      </trkpt>
      <trkpt lat="44.69848" lon="5.99048">
        <ele>1836.859</ele>
        <time>2020-08-26T08:07:33Z</time>
      </trkpt>
      <trkpt lat="44.69852" lon="5.9905">
        <ele>1835.974</ele>
        <time>2020-08-26T08:07:53Z</time>
      </trkpt>
      <trkpt lat="44.69856" lon="5.99049">
        <ele>1834.434</ele>
        <time>2020-08-26T08:08:05Z</time>
      </trkpt>
      <trkpt lat="44.69861" lon="5.99051">
        <ele>1833.31</ele>
        <time>2020-08-26T08:08:19Z</time>
      </trkpt>
      <trkpt lat="44.69862" lon="5.99051">
        <ele>1832.829</ele>
        <time>2020-08-26T08:08:23Z</time>
      </trkpt>
      <trkpt lat="44.69868" lon="5.99051">
        <ele>1830.009</ele>
        <time>2020-08-26T08:08:37Z</time>
      </trkpt>
      <trkpt lat="44.6987" lon="5.99053">
        <ele>1829.316</ele>
        <time>2020-08-26T08:08:46Z</time>
      </trkpt>
      <trkpt lat="44.6987" lon="5.99052">
        <ele>1829.099</ele>
        <time>2020-08-26T08:08:49Z</time>
      </trkpt>
      <trkpt lat="44.69872" lon="5.99051">
        <ele>1828.135</ele>
        <time>2020-08-26T08:08:54Z</time>
      </trkpt>
      <trkpt lat="44.69873" lon="5.99051">
        <ele>1827.563</ele>
        <time>2020-08-26T08:09:10Z</time>
      </trkpt>
      <trkpt lat="44.69873" lon="5.99051">
        <ele>1827.429</ele>
        <time>2020-08-26T08:09:11Z</time>
      </trkpt>
      <trkpt lat="44.69874" lon="5.99049">
        <ele>1826.387</ele>
        <time>2020-08-26T08:09:19Z</time>
      </trkpt>
      <trkpt lat="44.69878" lon="5.99048">
        <ele>1824.524</ele>
        <time>2020-08-26T08:09:38Z</time>
      </trkpt>
      <trkpt lat="44.6988" lon="5.9905">
        <ele>1823.862</ele>
        <time>2020-08-26T08:09:56Z</time>
      </trkpt>
      <trkpt lat="44.69883" lon="5.99051">
        <ele>1822.672</ele>
        <time>2020-08-26T08:10:07Z</time>
      </trkpt>
      <trkpt lat="44.69883" lon="5.99051">
        <ele>1822.448</ele>
        <time>2020-08-26T08:10:08Z</time>
      </trkpt>
      <trkpt lat="44.69885" lon="5.9905">
        <ele>1821.189</ele>
        <time>2020-08-26T08:10:19Z</time>
      </trkpt>
      <trkpt lat="44.69889" lon="5.99051">
        <ele>1819.958</ele>
        <time>2020-08-26T08:10:35Z</time>
      </trkpt>
      <trkpt lat="44.69891" lon="5.99049">
        <ele>1818.361</ele>
        <time>2020-08-26T08:10:59Z</time>
      </trkpt>
      <trkpt lat="44.69894" lon="5.99055">
        <ele>1818.837</ele>
        <time>2020-08-26T08:11:19Z</time>
      </trkpt>
      <trkpt lat="44.69896" lon="5.99054">
        <ele>1818.14</ele>
        <time>2020-08-26T08:11:34Z</time>
      </trkpt>
      <trkpt lat="44.69897" lon="5.99055">
        <ele>1818.022</ele>
        <time>2020-08-26T08:11:55Z</time>
      </trkpt>
      <trkpt lat="44.699" lon="5.99057">
        <ele>1816.651</ele>
        <time>2020-08-26T08:12:09Z</time>
      </trkpt>
      <trkpt lat="44.69904" lon="5.99056">
        <ele>1815.541</ele>
        <time>2020-08-26T08:12:29Z</time>
      </trkpt>
      <trkpt lat="44.69913" lon="5.99056">
        <ele>1812.268</ele>
        <time>2020-08-26T08:12:45Z</time>
      </trkpt>
      <trkpt lat="44.69925" lon="5.99058">
        <ele>1808.042</ele>
        <time>2020-08-26T08:13:02Z</time>
      </trkpt>
      <trkpt lat="44.69934" lon="5.99062">
        <ele>1804.579</ele>
        <time>2020-08-26T08:13:16Z</time>
      </trkpt>
      <trkpt lat="44.69945" lon="5.99069">
        <ele>1801.429</ele>
        <time>2020-08-26T08:13:33Z</time>
      </trkpt>
      <trkpt lat="44.69947" lon="5.9907">
        <ele>1801.069</ele>
        <time>2020-08-26T08:13:36Z</time>
      </trkpt>
      <trkpt lat="44.69964" lon="5.9908">
        <ele>1799.976</ele>
        <time>2020-08-26T08:13:53Z</time>
      </trkpt>
      <trkpt lat="44.69976" lon="5.99086">
        <ele>1799.597</ele>
        <time>2020-08-26T08:14:08Z</time>
      </trkpt>
      <trkpt lat="44.69986" lon="5.99093">
        <ele>1798.858</ele>
        <time>2020-08-26T08:14:29Z</time>
      </trkpt>
      <trkpt lat="44.69999" lon="5.99106">
        <ele>1799.412</ele>
        <time>2020-08-26T08:14:47Z</time>
      </trkpt>
      <trkpt lat="44.70002" lon="5.99112">
        <ele>1799.591</ele>
        <time>2020-08-26T08:14:54Z</time>
      </trkpt>
      <trkpt lat="44.70003" lon="5.99118">
        <ele>1799.41</ele>
        <time>2020-08-26T08:14:58Z</time>
      </trkpt>
      <trkpt lat="44.70009" lon="5.99144">
        <ele>1799.22</ele>
        <time>2020-08-26T08:15:15Z</time>
      </trkpt>
      <trkpt lat="44.70008" lon="5.99155">
        <ele>1799.616</ele>
        <time>2020-08-26T08:15:23Z</time>
      </trkpt>
      <trkpt lat="44.7001" lon="5.99163">
        <ele>1799.846</ele>
        <time>2020-08-26T08:15:29Z</time>
      </trkpt>
      <trkpt lat="44.7002" lon="5.99179">
        <ele>1799.872</ele>
        <time>2020-08-26T08:15:44Z</time>
      </trkpt>
      <trkpt lat="44.70029" lon="5.99188">
        <ele>1799.89</ele>
        <time>2020-08-26T08:15:56Z</time>
      </trkpt>
      <trkpt lat="44.70043" lon="5.99199">
        <ele>1799.466</ele>
        <time>2020-08-26T08:16:12Z</time>
      </trkpt>
      <trkpt lat="44.7005" lon="5.99213">
        <ele>1799.593</ele>
        <time>2020-08-26T08:16:26Z</time>
      </trkpt>
      <trkpt lat="44.70051" lon="5.99213">
        <ele>1799.616</ele>
        <time>2020-08-26T08:16:48Z</time>
      </trkpt>
      <trkpt lat="44.70056" lon="5.99219">
        <ele>1799.823</ele>
        <time>2020-08-26T08:17:02Z</time>
      </trkpt>
      <trkpt lat="44.70061" lon="5.99234">
        <ele>1798.862</ele>
        <time>2020-08-26T08:17:15Z</time>
      </trkpt>
      <trkpt lat="44.7007" lon="5.99257">
        <ele>1796.973</ele>
        <time>2020-08-26T08:17:33Z</time>
      </trkpt>
      <trkpt lat="44.70074" lon="5.99283">
        <ele>1794.256</ele>
        <time>2020-08-26T08:17:53Z</time>
      </trkpt>
      <trkpt lat="44.70079" lon="5.99294">
        <ele>1792.208</ele>
        <time>2020-08-26T08:18:09Z</time>
      </trkpt>
      <trkpt lat="44.70072" lon="5.99302">
        <ele>1791.728</ele>
        <time>2020-08-26T08:18:29Z</time>
      </trkpt>
      <trkpt lat="44.7008" lon="5.99292">
        <ele>1792.298</ele>
        <time>2020-08-26T08:18:50Z</time>
      </trkpt>
      <trkpt lat="44.7009" lon="5.99286">
        <ele>1790.768</ele>
        <time>2020-08-26T08:19:10Z</time>
      </trkpt>
      <trkpt lat="44.70097" lon="5.9929">
        <ele>1787.735</ele>
        <time>2020-08-26T08:19:27Z</time>
      </trkpt>
      <trkpt lat="44.70101" lon="5.9929">
        <ele>1786.572</ele>
        <time>2020-08-26T08:19:37Z</time>
      </trkpt>
      <trkpt lat="44.7011" lon="5.99288">
        <ele>1783.943</ele>
        <time>2020-08-26T08:19:52Z</time>
      </trkpt>
      <trkpt lat="44.70113" lon="5.99296">
        <ele>1781.791</ele>
        <time>2020-08-26T08:20:06Z</time>
      </trkpt>
      <trkpt lat="44.70121" lon="5.99293">
        <ele>1779.968</ele>
        <time>2020-08-26T08:20:23Z</time>
      </trkpt>
      <trkpt lat="44.70131" lon="5.9929">
        <ele>1777.781</ele>
        <time>2020-08-26T08:20:39Z</time>
      </trkpt>
      <trkpt lat="44.70138" lon="5.99293">
        <ele>1775.366</ele>
        <time>2020-08-26T08:20:54Z</time>
      </trkpt>
      <trkpt lat="44.70145" lon="5.99296">
        <ele>1773.148</ele>
        <time>2020-08-26T08:21:06Z</time>
      </trkpt>
      <trkpt lat="44.70156" lon="5.99298">
        <ele>1770.111</ele>
        <time>2020-08-26T08:21:24Z</time>
      </trkpt>
      <trkpt lat="44.70169" lon="5.99291">
        <ele>1767.232</ele>
        <time>2020-08-26T08:21:43Z</time>
      </trkpt>
      <trkpt lat="44.70178" lon="5.99284">
        <ele>1764.852</ele>
        <time>2020-08-26T08:22:01Z</time>
      </trkpt>
      <trkpt lat="44.70182" lon="5.99284">
        <ele>1763.431</ele>
        <time>2020-08-26T08:22:14Z</time>
      </trkpt>
      <trkpt lat="44.70191" lon="5.99289">
        <ele>1760.639</ele>
        <time>2020-08-26T08:22:34Z</time>
      </trkpt>
      <trkpt lat="44.70201" lon="5.99296">
        <ele>1757.392</ele>
        <time>2020-08-26T08:22:51Z</time>
      </trkpt>
      <trkpt lat="44.70215" lon="5.993">
        <ele>1752.917</ele>
        <time>2020-08-26T08:23:09Z</time>
      </trkpt>
      <trkpt lat="44.70229" lon="5.99304">
        <ele>1748.848</ele>
        <time>2020-08-26T08:23:27Z</time>
      </trkpt>
      <trkpt lat="44.70238" lon="5.99304">
        <ele>1746.289</ele>
        <time>2020-08-26T08:23:45Z</time>
      </trkpt>
      <trkpt lat="44.70247" lon="5.99302">
        <ele>1743.414</ele>
        <time>2020-08-26T08:24:00Z</time>
      </trkpt>
      <trkpt lat="44.70258" lon="5.99299">
        <ele>1740.374</ele>
        <time>2020-08-26T08:24:13Z</time>
      </trkpt>
      <trkpt lat="44.7027" lon="5.99294">
        <ele>1737.205</ele>
        <time>2020-08-26T08:24:29Z</time>
      </trkpt>
      <trkpt lat="44.70283" lon="5.99287">
        <ele>1734.545</ele>
        <time>2020-08-26T08:24:46Z</time>
      </trkpt>
      <trkpt lat="44.70292" lon="5.99275">
        <ele>1733.043</ele>
        <time>2020-08-26T08:25:01Z</time>
      </trkpt>
      <trkpt lat="44.70303" lon="5.99257">
        <ele>1730.362</ele>
        <time>2020-08-26T08:25:16Z</time>
      </trkpt>
      <trkpt lat="44.70311" lon="5.99244">
        <ele>1729.304</ele>
        <time>2020-08-26T08:25:28Z</time>
      </trkpt>
      <trkpt lat="44.70321" lon="5.99228">
        <ele>1728.868</ele>
        <time>2020-08-26T08:25:44Z</time>
      </trkpt>
      <trkpt lat="44.70328" lon="5.99211">
        <ele>1729.036</ele>
        <time>2020-08-26T08:26:02Z</time>
      </trkpt>
      <trkpt lat="44.70335" lon="5.99199">
        <ele>1729.295</ele>
        <time>2020-08-26T08:26:17Z</time>
      </trkpt>
      <trkpt lat="44.70344" lon="5.99191">
        <ele>1726.068</ele>
        <time>2020-08-26T08:26:34Z</time>
      </trkpt>
      <trkpt lat="44.70354" lon="5.99179">
        <ele>1722.389</ele>
        <time>2020-08-26T08:26:52Z</time>
      </trkpt>
      <trkpt lat="44.70363" lon="5.99168">
        <ele>1720.153</ele>
        <time>2020-08-26T08:27:12Z</time>
      </trkpt>
      <trkpt lat="44.70372" lon="5.99157">
        <ele>1715.729</ele>
        <time>2020-08-26T08:27:31Z</time>
      </trkpt>
      <trkpt lat="44.70379" lon="5.9915">
        <ele>1713.331</ele>
        <time>2020-08-26T08:27:47Z</time>
      </trkpt>
      <trkpt lat="44.70383" lon="5.9914">
        <ele>1712.759</ele>
        <time>2020-08-26T08:28:05Z</time>
      </trkpt>
      <trkpt lat="44.70386" lon="5.99125">
        <ele>1710.741</ele>
        <time>2020-08-26T08:28:20Z</time>
      </trkpt>
      <trkpt lat="44.7039" lon="5.99106">
        <ele>1708.957</ele>
        <time>2020-08-26T08:28:38Z</time>
      </trkpt>
      <trkpt lat="44.7039" lon="5.99097">
        <ele>1709.237</ele>
        <time>2020-08-26T08:28:52Z</time>
      </trkpt>
      <trkpt lat="44.70385" lon="5.99094">
        <ele>1709.487</ele>
        <time>2020-08-26T08:29:08Z</time>
      </trkpt>
      <trkpt lat="44.70382" lon="5.99093">
        <ele>1709.403</ele>
        <time>2020-08-26T08:29:11Z</time>
      </trkpt>
      <trkpt lat="44.70365" lon="5.99089">
        <ele>1708.623</ele>
        <time>2020-08-26T08:29:26Z</time>
      </trkpt>
      <trkpt lat="44.70363" lon="5.99089">
        <ele>1708.492</ele>
        <time>2020-08-26T08:29:28Z</time>
      </trkpt>
      <trkpt lat="44.70354" lon="5.99087">
        <ele>1708.026</ele>
        <time>2020-08-26T08:29:38Z</time>
      </trkpt>
      <trkpt lat="44.7035" lon="5.99085">
        <ele>1707.744</ele>
        <time>2020-08-26T08:29:42Z</time>
      </trkpt>
      <trkpt lat="44.70334" lon="5.99081">
        <ele>1706.777</ele>
        <time>2020-08-26T08:29:57Z</time>
      </trkpt>
      <trkpt lat="44.70325" lon="5.99077">
        <ele>1705.457</ele>
        <time>2020-08-26T08:30:07Z</time>
      </trkpt>
      <trkpt lat="44.7032" lon="5.99072">
        <ele>1704.524</ele>
        <time>2020-08-26T08:30:13Z</time>
      </trkpt>
      <trkpt lat="44.70318" lon="5.99071">
        <ele>1704.224</ele>
        <time>2020-08-26T08:30:15Z</time>
      </trkpt>
      <trkpt lat="44.70306" lon="5.99059">
        <ele>1702.299</ele>
        <time>2020-08-26T08:30:29Z</time>
      </trkpt>
      <trkpt lat="44.70299" lon="5.9905">
        <ele>1701.232</ele>
        <time>2020-08-26T08:30:42Z</time>
      </trkpt>
      <trkpt lat="44.70296" lon="5.99046">
        <ele>1700.878</ele>
        <time>2020-08-26T08:30:46Z</time>
      </trkpt>
      <trkpt lat="44.70285" lon="5.99028">
        <ele>1700.006</ele>
        <time>2020-08-26T08:31:04Z</time>
      </trkpt>
      <trkpt lat="44.70274" lon="5.99013">
        <ele>1700</ele>
        <time>2020-08-26T08:31:20Z</time>
      </trkpt>
      <trkpt lat="44.70261" lon="5.98991">
        <ele>1700</ele>
        <time>2020-08-26T08:31:39Z</time>
      </trkpt>
      <trkpt lat="44.70255" lon="5.98984">
        <ele>1700</ele>
        <time>2020-08-26T08:31:46Z</time>
      </trkpt>
      <trkpt lat="44.70243" lon="5.98967">
        <ele>1699.608</ele>
        <time>2020-08-26T08:32:02Z</time>
      </trkpt>
      <trkpt lat="44.70235" lon="5.98948">
        <ele>1698.012</ele>
        <time>2020-08-26T08:32:18Z</time>
      </trkpt>
      <trkpt lat="44.70227" lon="5.98929">
        <ele>1695.234</ele>
        <time>2020-08-26T08:32:33Z</time>
      </trkpt>
      <trkpt lat="44.70218" lon="5.98916">
        <ele>1693.014</ele>
        <time>2020-08-26T08:32:47Z</time>
      </trkpt>
      <trkpt lat="44.7021" lon="5.98908">
        <ele>1692.784</ele>
        <time>2020-08-26T08:33:01Z</time>
      </trkpt>
      <trkpt lat="44.70209" lon="5.98905">
        <ele>1692.591</ele>
        <time>2020-08-26T08:33:04Z</time>
      </trkpt>
      <trkpt lat="44.70197" lon="5.98889">
        <ele>1690.361</ele>
        <time>2020-08-26T08:33:19Z</time>
      </trkpt>
      <trkpt lat="44.7018" lon="5.98876">
        <ele>1689.454</ele>
        <time>2020-08-26T08:33:36Z</time>
      </trkpt>
      <trkpt lat="44.70161" lon="5.98864">
        <ele>1687.382</ele>
        <time>2020-08-26T08:33:56Z</time>
      </trkpt>
      <trkpt lat="44.70159" lon="5.98863">
        <ele>1687.078</ele>
        <time>2020-08-26T08:33:59Z</time>
      </trkpt>
      <trkpt lat="44.70146" lon="5.98852">
        <ele>1684.803</ele>
        <time>2020-08-26T08:34:14Z</time>
      </trkpt>
      <trkpt lat="44.70136" lon="5.9884">
        <ele>1682.963</ele>
        <time>2020-08-26T08:34:27Z</time>
      </trkpt>
      <trkpt lat="44.70125" lon="5.98832">
        <ele>1681.978</ele>
        <time>2020-08-26T08:34:43Z</time>
      </trkpt>
      <trkpt lat="44.70112" lon="5.98824">
        <ele>1681.054</ele>
        <time>2020-08-26T08:34:56Z</time>
      </trkpt>
      <trkpt lat="44.70101" lon="5.98817">
        <ele>1680.065</ele>
        <time>2020-08-26T08:35:09Z</time>
      </trkpt>
      <trkpt lat="44.70093" lon="5.98807">
        <ele>1679.084</ele>
        <time>2020-08-26T08:35:22Z</time>
      </trkpt>
      <trkpt lat="44.7008" lon="5.98799">
        <ele>1677.447</ele>
        <time>2020-08-26T08:35:40Z</time>
      </trkpt>
      <trkpt lat="44.70076" lon="5.98794">
        <ele>1676.837</ele>
        <time>2020-08-26T08:35:47Z</time>
      </trkpt>
      <trkpt lat="44.70072" lon="5.98778">
        <ele>1675.41</ele>
        <time>2020-08-26T08:36:02Z</time>
      </trkpt>
      <trkpt lat="44.70069" lon="5.98771">
        <ele>1674.262</ele>
        <time>2020-08-26T08:36:09Z</time>
      </trkpt>
      <trkpt lat="44.70059" lon="5.98756">
        <ele>1671.87</ele>
        <time>2020-08-26T08:36:23Z</time>
      </trkpt>
      <trkpt lat="44.7005" lon="5.98741">
        <ele>1670.189</ele>
        <time>2020-08-26T08:36:36Z</time>
      </trkpt>
      <trkpt lat="44.70036" lon="5.98723">
        <ele>1668.012</ele>
        <time>2020-08-26T08:36:54Z</time>
      </trkpt>
      <trkpt lat="44.7003" lon="5.98713">
        <ele>1666.708</ele>
        <time>2020-08-26T08:37:04Z</time>
      </trkpt>
      <trkpt lat="44.70015" lon="5.98703">
        <ele>1665.636</ele>
        <time>2020-08-26T08:37:20Z</time>
      </trkpt>
      <trkpt lat="44.70006" lon="5.98686">
        <ele>1664.353</ele>
        <time>2020-08-26T08:37:35Z</time>
      </trkpt>
      <trkpt lat="44.69999" lon="5.98669">
        <ele>1663.064</ele>
        <time>2020-08-26T08:37:50Z</time>
      </trkpt>
      <trkpt lat="44.69989" lon="5.98651">
        <ele>1660.897</ele>
        <time>2020-08-26T08:38:04Z</time>
      </trkpt>
      <trkpt lat="44.69981" lon="5.98635">
        <ele>1659.387</ele>
        <time>2020-08-26T08:38:17Z</time>
      </trkpt>
      <trkpt lat="44.69971" lon="5.98617">
        <ele>1657.373</ele>
        <time>2020-08-26T08:38:33Z</time>
      </trkpt>
      <trkpt lat="44.69969" lon="5.98608">
        <ele>1656.634</ele>
        <time>2020-08-26T08:38:48Z</time>
      </trkpt>
      <trkpt lat="44.69965" lon="5.98607">
        <ele>1656.328</ele>
        <time>2020-08-26T08:39:13Z</time>
      </trkpt>
      <trkpt lat="44.69967" lon="5.98605">
        <ele>1656.371</ele>
        <time>2020-08-26T08:39:32Z</time>
      </trkpt>
      <trkpt lat="44.69964" lon="5.98602">
        <ele>1655.982</ele>
        <time>2020-08-26T08:39:46Z</time>
      </trkpt>
      <trkpt lat="44.69957" lon="5.98585">
        <ele>1654.454</ele>
        <time>2020-08-26T08:40:03Z</time>
      </trkpt>
      <trkpt lat="44.69949" lon="5.98558">
        <ele>1652.402</ele>
        <time>2020-08-26T08:40:23Z</time>
      </trkpt>
      <trkpt lat="44.69946" lon="5.98552">
        <ele>1651.891</ele>
        <time>2020-08-26T08:40:27Z</time>
      </trkpt>
      <trkpt lat="44.69941" lon="5.98538">
        <ele>1650.772</ele>
        <time>2020-08-26T08:40:38Z</time>
      </trkpt>
      <trkpt lat="44.69935" lon="5.98523">
        <ele>1649.563</ele>
        <time>2020-08-26T08:40:49Z</time>
      </trkpt>
      <trkpt lat="44.69931" lon="5.98497">
        <ele>1647.281</ele>
        <time>2020-08-26T08:41:05Z</time>
      </trkpt>
      <trkpt lat="44.69926" lon="5.98478">
        <ele>1646.074</ele>
        <time>2020-08-26T08:41:18Z</time>
      </trkpt>
      <trkpt lat="44.69925" lon="5.98475">
        <ele>1645.887</ele>
        <time>2020-08-26T08:41:20Z</time>
      </trkpt>
      <trkpt lat="44.69925" lon="5.98474">
        <ele>1645.821</ele>
        <time>2020-08-26T08:41:32Z</time>
      </trkpt>
      <trkpt lat="44.69922" lon="5.98471">
        <ele>1645.746</ele>
        <time>2020-08-26T08:41:36Z</time>
      </trkpt>
      <trkpt lat="44.6992" lon="5.98465">
        <ele>1645.369</ele>
        <time>2020-08-26T08:41:41Z</time>
      </trkpt>
      <trkpt lat="44.69917" lon="5.98459">
        <ele>1645.075</ele>
        <time>2020-08-26T08:41:46Z</time>
      </trkpt>
      <trkpt lat="44.69915" lon="5.98458">
        <ele>1645.128</ele>
        <time>2020-08-26T08:41:48Z</time>
      </trkpt>
      <trkpt lat="44.69908" lon="5.98448">
        <ele>1644.937</ele>
        <time>2020-08-26T08:41:57Z</time>
      </trkpt>
      <trkpt lat="44.69895" lon="5.98438">
        <ele>1645.026</ele>
        <time>2020-08-26T08:42:11Z</time>
      </trkpt>
      <trkpt lat="44.6989" lon="5.98431">
        <ele>1644.926</ele>
        <time>2020-08-26T08:42:17Z</time>
      </trkpt>
      <trkpt lat="44.69888" lon="5.98426">
        <ele>1644.739</ele>
        <time>2020-08-26T08:42:21Z</time>
      </trkpt>
      <trkpt lat="44.69881" lon="5.98419">
        <ele>1644.295</ele>
        <time>2020-08-26T08:42:29Z</time>
      </trkpt>
      <trkpt lat="44.69871" lon="5.98398">
        <ele>1640.973</ele>
        <time>2020-08-26T08:42:48Z</time>
      </trkpt>
      <trkpt lat="44.69864" lon="5.98381">
        <ele>1636.997</ele>
        <time>2020-08-26T08:43:09Z</time>
      </trkpt>
      <trkpt lat="44.69859" lon="5.98372">
        <ele>1635.145</ele>
        <time>2020-08-26T08:43:21Z</time>
      </trkpt>
      <trkpt lat="44.69859" lon="5.98371">
        <ele>1635.024</ele>
        <time>2020-08-26T08:43:22Z</time>
      </trkpt>
      <trkpt lat="44.69852" lon="5.98358">
        <ele>1633.256</ele>
        <time>2020-08-26T08:43:38Z</time>
      </trkpt>
      <trkpt lat="44.69848" lon="5.98341">
        <ele>1629.299</ele>
        <time>2020-08-26T08:43:57Z</time>
      </trkpt>
      <trkpt lat="44.69843" lon="5.9832">
        <ele>1625.19</ele>
        <time>2020-08-26T08:44:12Z</time>
      </trkpt>
      <trkpt lat="44.69843" lon="5.98316">
        <ele>1624.466</ele>
        <time>2020-08-26T08:44:15Z</time>
      </trkpt>
      <trkpt lat="44.69836" lon="5.98287">
        <ele>1620.991</ele>
        <time>2020-08-26T08:44:34Z</time>
      </trkpt>
      <trkpt lat="44.69834" lon="5.98261">
        <ele>1617.517</ele>
        <time>2020-08-26T08:44:52Z</time>
      </trkpt>
      <trkpt lat="44.69829" lon="5.98238">
        <ele>1615.199</ele>
        <time>2020-08-26T08:45:14Z</time>
      </trkpt>
      <trkpt lat="44.69824" lon="5.98214">
        <ele>1612.81</ele>
        <time>2020-08-26T08:45:33Z</time>
      </trkpt>
      <trkpt lat="44.69821" lon="5.98192">
        <ele>1610.253</ele>
        <time>2020-08-26T08:45:49Z</time>
      </trkpt>
      <trkpt lat="44.6982" lon="5.98188">
        <ele>1609.866</ele>
        <time>2020-08-26T08:45:52Z</time>
      </trkpt>
      <trkpt lat="44.69815" lon="5.98176">
        <ele>1609.347</ele>
        <time>2020-08-26T08:46:01Z</time>
      </trkpt>
      <trkpt lat="44.69811" lon="5.98154">
        <ele>1607.599</ele>
        <time>2020-08-26T08:46:15Z</time>
      </trkpt>
      <trkpt lat="44.69811" lon="5.98151">
        <ele>1607.644</ele>
        <time>2020-08-26T08:46:17Z</time>
      </trkpt>
      <trkpt lat="44.69807" lon="5.98138">
        <ele>1607.604</ele>
        <time>2020-08-26T08:46:32Z</time>
      </trkpt>
      <trkpt lat="44.69805" lon="5.98135">
        <ele>1607.751</ele>
        <time>2020-08-26T08:46:39Z</time>
      </trkpt>
      <trkpt lat="44.69805" lon="5.98132">
        <ele>1607.667</ele>
        <time>2020-08-26T08:46:41Z</time>
      </trkpt>
      <trkpt lat="44.69804" lon="5.98131">
        <ele>1607.633</ele>
        <time>2020-08-26T08:46:42Z</time>
      </trkpt>
      <trkpt lat="44.69799" lon="5.98107">
        <ele>1606.57</ele>
        <time>2020-08-26T08:47:01Z</time>
      </trkpt>
      <trkpt lat="44.69792" lon="5.98084">
        <ele>1605.583</ele>
        <time>2020-08-26T08:47:18Z</time>
      </trkpt>
      <trkpt lat="44.69786" lon="5.98059">
        <ele>1604.398</ele>
        <time>2020-08-26T08:47:33Z</time>
      </trkpt>
      <trkpt lat="44.69784" lon="5.98052">
        <ele>1604.094</ele>
        <time>2020-08-26T08:47:38Z</time>
      </trkpt>
      <trkpt lat="44.69775" lon="5.98033">
        <ele>1603.778</ele>
        <time>2020-08-26T08:47:53Z</time>
      </trkpt>
      <trkpt lat="44.69765" lon="5.98013">
        <ele>1604.302</ele>
        <time>2020-08-26T08:48:08Z</time>
      </trkpt>
      <trkpt lat="44.69756" lon="5.97992">
        <ele>1604.28</ele>
        <time>2020-08-26T08:48:23Z</time>
      </trkpt>
      <trkpt lat="44.69756" lon="5.97987">
        <ele>1604.004</ele>
        <time>2020-08-26T08:48:26Z</time>
      </trkpt>
      <trkpt lat="44.69759" lon="5.97975">
        <ele>1602.636</ele>
        <time>2020-08-26T08:48:34Z</time>
      </trkpt>
      <trkpt lat="44.69761" lon="5.97951">
        <ele>1600.016</ele>
        <time>2020-08-26T08:48:50Z</time>
      </trkpt>
      <trkpt lat="44.69763" lon="5.97936">
        <ele>1598.363</ele>
        <time>2020-08-26T08:49:04Z</time>
      </trkpt>
      <trkpt lat="44.69767" lon="5.9791">
        <ele>1595.637</ele>
        <time>2020-08-26T08:49:22Z</time>
      </trkpt>
      <trkpt lat="44.69766" lon="5.97903">
        <ele>1595.02</ele>
        <time>2020-08-26T08:49:28Z</time>
      </trkpt>
      <trkpt lat="44.69768" lon="5.97881">
        <ele>1592.98</ele>
        <time>2020-08-26T08:49:44Z</time>
      </trkpt>
      <trkpt lat="44.69764" lon="5.9786">
        <ele>1591.382</ele>
        <time>2020-08-26T08:50:01Z</time>
      </trkpt>
      <trkpt lat="44.69763" lon="5.97858">
        <ele>1591.338</ele>
        <time>2020-08-26T08:50:03Z</time>
      </trkpt>
      <trkpt lat="44.69749" lon="5.97837">
        <ele>1590.5</ele>
        <time>2020-08-26T08:50:21Z</time>
      </trkpt>
      <trkpt lat="44.69746" lon="5.97833">
        <ele>1590.41</ele>
        <time>2020-08-26T08:50:25Z</time>
      </trkpt>
      <trkpt lat="44.69745" lon="5.97824">
        <ele>1590.487</ele>
        <time>2020-08-26T08:50:41Z</time>
      </trkpt>
      <trkpt lat="44.69746" lon="5.97825">
        <ele>1590.397</ele>
        <time>2020-08-26T08:51:03Z</time>
      </trkpt>
      <trkpt lat="44.69746" lon="5.97826">
        <ele>1590.391</ele>
        <time>2020-08-26T08:51:30Z</time>
      </trkpt>
      <trkpt lat="44.69746" lon="5.97826">
        <ele>1590.404</ele>
        <time>2020-08-26T08:52:06Z</time>
      </trkpt>
      <trkpt lat="44.69747" lon="5.97825">
        <ele>1590.329</ele>
        <time>2020-08-26T08:52:32Z</time>
      </trkpt>
      <trkpt lat="44.69747" lon="5.97824">
        <ele>1590.358</ele>
        <time>2020-08-26T08:52:57Z</time>
      </trkpt>
      <trkpt lat="44.69747" lon="5.97828">
        <ele>1590.363</ele>
        <time>2020-08-26T08:53:31Z</time>
      </trkpt>
      <trkpt lat="44.69748" lon="5.97827">
        <ele>1590.248</ele>
        <time>2020-08-26T08:53:59Z</time>
      </trkpt>
      <trkpt lat="44.69746" lon="5.97827">
        <ele>1590.387</ele>
        <time>2020-08-26T08:54:27Z</time>
      </trkpt>
      <trkpt lat="44.69748" lon="5.97825">
        <ele>1590.25</ele>
        <time>2020-08-26T08:54:58Z</time>
      </trkpt>
      <trkpt lat="44.69748" lon="5.97825">
        <ele>1590.183</ele>
        <time>2020-08-26T08:55:28Z</time>
      </trkpt>
      <trkpt lat="44.69748" lon="5.97826">
        <ele>1590.198</ele>
        <time>2020-08-26T08:56:03Z</time>
      </trkpt>
      <trkpt lat="44.69748" lon="5.97826">
        <ele>1590.241</ele>
        <time>2020-08-26T08:56:28Z</time>
      </trkpt>
      <trkpt lat="44.69747" lon="5.97826">
        <ele>1590.327</ele>
        <time>2020-08-26T08:56:51Z</time>
      </trkpt>
      <trkpt lat="44.69747" lon="5.97823">
        <ele>1590.291</ele>
        <time>2020-08-26T08:57:24Z</time>
      </trkpt>
      <trkpt lat="44.69747" lon="5.97821">
        <ele>1590.353</ele>
        <time>2020-08-26T08:57:51Z</time>
      </trkpt>
      <trkpt lat="44.69745" lon="5.97816">
        <ele>1590.494</ele>
        <time>2020-08-26T08:57:56Z</time>
      </trkpt>
      <trkpt lat="44.69742" lon="5.97797">
        <ele>1590.927</ele>
        <time>2020-08-26T08:58:13Z</time>
      </trkpt>
      <trkpt lat="44.69744" lon="5.97771">
        <ele>1590.807</ele>
        <time>2020-08-26T08:58:33Z</time>
      </trkpt>
      <trkpt lat="44.69745" lon="5.97751">
        <ele>1590.698</ele>
        <time>2020-08-26T08:58:46Z</time>
      </trkpt>
      <trkpt lat="44.69744" lon="5.97723">
        <ele>1591.813</ele>
        <time>2020-08-26T08:58:58Z</time>
      </trkpt>
      <trkpt lat="44.69743" lon="5.97719">
        <ele>1591.94</ele>
        <time>2020-08-26T08:59:00Z</time>
      </trkpt>
      <trkpt lat="44.69743" lon="5.9771">
        <ele>1592.046</ele>
        <time>2020-08-26T08:59:06Z</time>
      </trkpt>
      <trkpt lat="44.69745" lon="5.97694">
        <ele>1591.752</ele>
        <time>2020-08-26T08:59:19Z</time>
      </trkpt>
      <trkpt lat="44.69745" lon="5.97693">
        <ele>1591.727</ele>
        <time>2020-08-26T08:59:20Z</time>
      </trkpt>
      <trkpt lat="44.69745" lon="5.97684">
        <ele>1592.068</ele>
        <time>2020-08-26T08:59:27Z</time>
      </trkpt>
      <trkpt lat="44.69746" lon="5.97678">
        <ele>1592.14</ele>
        <time>2020-08-26T08:59:31Z</time>
      </trkpt>
      <trkpt lat="44.69745" lon="5.97672">
        <ele>1592.553</ele>
        <time>2020-08-26T08:59:35Z</time>
      </trkpt>
      <trkpt lat="44.69744" lon="5.97655">
        <ele>1593.237</ele>
        <time>2020-08-26T08:59:45Z</time>
      </trkpt>
      <trkpt lat="44.69746" lon="5.97646">
        <ele>1593.32</ele>
        <time>2020-08-26T08:59:51Z</time>
      </trkpt>
      <trkpt lat="44.69751" lon="5.9763">
        <ele>1592.874</ele>
        <time>2020-08-26T09:00:05Z</time>
      </trkpt>
      <trkpt lat="44.69752" lon="5.97615">
        <ele>1592.553</ele>
        <time>2020-08-26T09:00:16Z</time>
      </trkpt>
      <trkpt lat="44.69752" lon="5.97611">
        <ele>1592.639</ele>
        <time>2020-08-26T09:00:18Z</time>
      </trkpt>
      <trkpt lat="44.69754" lon="5.97593">
        <ele>1592.168</ele>
        <time>2020-08-26T09:00:32Z</time>
      </trkpt>
      <trkpt lat="44.6976" lon="5.97588">
        <ele>1590.833</ele>
        <time>2020-08-26T09:00:49Z</time>
      </trkpt>
      <trkpt lat="44.69772" lon="5.97579">
        <ele>1588.138</ele>
        <time>2020-08-26T09:01:10Z</time>
      </trkpt>
      <trkpt lat="44.69787" lon="5.97581">
        <ele>1585.553</ele>
        <time>2020-08-26T09:01:27Z</time>
      </trkpt>
      <trkpt lat="44.69803" lon="5.97578">
        <ele>1583.381</ele>
        <time>2020-08-26T09:01:43Z</time>
      </trkpt>
      <trkpt lat="44.69821" lon="5.97568">
        <ele>1581.001</ele>
        <time>2020-08-26T09:02:04Z</time>
      </trkpt>
      <trkpt lat="44.69822" lon="5.97567">
        <ele>1580.875</ele>
        <time>2020-08-26T09:02:05Z</time>
      </trkpt>
      <trkpt lat="44.69824" lon="5.97564">
        <ele>1580.52</ele>
        <time>2020-08-26T09:02:07Z</time>
      </trkpt>
      <trkpt lat="44.6983" lon="5.97541">
        <ele>1578.986</ele>
        <time>2020-08-26T09:02:22Z</time>
      </trkpt>
      <trkpt lat="44.69833" lon="5.97521">
        <ele>1577.741</ele>
        <time>2020-08-26T09:02:36Z</time>
      </trkpt>
      <trkpt lat="44.69834" lon="5.97512">
        <ele>1577.374</ele>
        <time>2020-08-26T09:02:41Z</time>
      </trkpt>
      <trkpt lat="44.69836" lon="5.97488">
        <ele>1576.336</ele>
        <time>2020-08-26T09:02:57Z</time>
      </trkpt>
      <trkpt lat="44.69836" lon="5.97469">
        <ele>1575.525</ele>
        <time>2020-08-26T09:03:09Z</time>
      </trkpt>
      <trkpt lat="44.69836" lon="5.97466">
        <ele>1575.298</ele>
        <time>2020-08-26T09:03:11Z</time>
      </trkpt>
      <trkpt lat="44.69834" lon="5.97448">
        <ele>1574.199</ele>
        <time>2020-08-26T09:03:24Z</time>
      </trkpt>
      <trkpt lat="44.69835" lon="5.97433">
        <ele>1573.395</ele>
        <time>2020-08-26T09:03:33Z</time>
      </trkpt>
      <trkpt lat="44.69835" lon="5.9741">
        <ele>1572.3</ele>
        <time>2020-08-26T09:03:47Z</time>
      </trkpt>
      <trkpt lat="44.69832" lon="5.97385">
        <ele>1570.967</ele>
        <time>2020-08-26T09:04:04Z</time>
      </trkpt>
      <trkpt lat="44.69831" lon="5.97369">
        <ele>1570.507</ele>
        <time>2020-08-26T09:04:15Z</time>
      </trkpt>
      <trkpt lat="44.69827" lon="5.97352">
        <ele>1569.759</ele>
        <time>2020-08-26T09:04:28Z</time>
      </trkpt>
      <trkpt lat="44.69821" lon="5.97337">
        <ele>1569.094</ele>
        <time>2020-08-26T09:04:42Z</time>
      </trkpt>
      <trkpt lat="44.69808" lon="5.97312">
        <ele>1568.41</ele>
        <time>2020-08-26T09:05:04Z</time>
      </trkpt>
      <trkpt lat="44.69799" lon="5.97289">
        <ele>1568.472</ele>
        <time>2020-08-26T09:05:23Z</time>
      </trkpt>
      <trkpt lat="44.69785" lon="5.97265">
        <ele>1569.022</ele>
        <time>2020-08-26T09:05:45Z</time>
      </trkpt>
      <trkpt lat="44.69773" lon="5.97248">
        <ele>1569.613</ele>
        <time>2020-08-26T09:06:00Z</time>
      </trkpt>
      <trkpt lat="44.69759" lon="5.97237">
        <ele>1570.463</ele>
        <time>2020-08-26T09:06:16Z</time>
      </trkpt>
      <trkpt lat="44.69752" lon="5.97229">
        <ele>1570.489</ele>
        <time>2020-08-26T09:06:24Z</time>
      </trkpt>
      <trkpt lat="44.69748" lon="5.97224">
        <ele>1570.395</ele>
        <time>2020-08-26T09:06:29Z</time>
      </trkpt>
      <trkpt lat="44.69738" lon="5.97206">
        <ele>1568.936</ele>
        <time>2020-08-26T09:06:44Z</time>
      </trkpt>
      <trkpt lat="44.69726" lon="5.97188">
        <ele>1567.896</ele>
        <time>2020-08-26T09:07:01Z</time>
      </trkpt>
      <trkpt lat="44.69725" lon="5.97183">
        <ele>1567.508</ele>
        <time>2020-08-26T09:07:04Z</time>
      </trkpt>
      <trkpt lat="44.69723" lon="5.97165">
        <ele>1565.781</ele>
        <time>2020-08-26T09:07:20Z</time>
      </trkpt>
      <trkpt lat="44.69719" lon="5.97137">
        <ele>1564.835</ele>
        <time>2020-08-26T09:07:42Z</time>
      </trkpt>
      <trkpt lat="44.69716" lon="5.97108">
        <ele>1562.714</ele>
        <time>2020-08-26T09:08:04Z</time>
      </trkpt>
      <trkpt lat="44.69719" lon="5.97077">
        <ele>1559.568</ele>
        <time>2020-08-26T09:08:28Z</time>
      </trkpt>
      <trkpt lat="44.69724" lon="5.97061">
        <ele>1556.997</ele>
        <time>2020-08-26T09:08:41Z</time>
      </trkpt>
      <trkpt lat="44.6973" lon="5.97024">
        <ele>1554.177</ele>
        <time>2020-08-26T09:09:07Z</time>
      </trkpt>
      <trkpt lat="44.6973" lon="5.97001">
        <ele>1553.43</ele>
        <time>2020-08-26T09:09:22Z</time>
      </trkpt>
      <trkpt lat="44.69723" lon="5.96968">
        <ele>1552.518</ele>
        <time>2020-08-26T09:09:50Z</time>
      </trkpt>
      <trkpt lat="44.69721" lon="5.96951">
        <ele>1551.773</ele>
        <time>2020-08-26T09:10:03Z</time>
      </trkpt>
      <trkpt lat="44.69717" lon="5.96932">
        <ele>1550.704</ele>
        <time>2020-08-26T09:10:17Z</time>
      </trkpt>
      <trkpt lat="44.69713" lon="5.96904">
        <ele>1548.414</ele>
        <time>2020-08-26T09:10:34Z</time>
      </trkpt>
      <trkpt lat="44.69706" lon="5.96875">
        <ele>1546.54</ele>
        <time>2020-08-26T09:10:55Z</time>
      </trkpt>
      <trkpt lat="44.69705" lon="5.96868">
        <ele>1546.045</ele>
        <time>2020-08-26T09:11:00Z</time>
      </trkpt>
      <trkpt lat="44.69699" lon="5.96841">
        <ele>1543.52</ele>
        <time>2020-08-26T09:11:20Z</time>
      </trkpt>
      <trkpt lat="44.69696" lon="5.96815">
        <ele>1540.846</ele>
        <time>2020-08-26T09:11:38Z</time>
      </trkpt>
      <trkpt lat="44.69696" lon="5.96799">
        <ele>1539.268</ele>
        <time>2020-08-26T09:11:51Z</time>
      </trkpt>
      <trkpt lat="44.69694" lon="5.96782">
        <ele>1538.363</ele>
        <time>2020-08-26T09:12:05Z</time>
      </trkpt>
      <trkpt lat="44.69693" lon="5.96762">
        <ele>1537.191</ele>
        <time>2020-08-26T09:12:22Z</time>
      </trkpt>
      <trkpt lat="44.69692" lon="5.96729">
        <ele>1535.108</ele>
        <time>2020-08-26T09:12:45Z</time>
      </trkpt>
      <trkpt lat="44.6969" lon="5.96703">
        <ele>1533.858</ele>
        <time>2020-08-26T09:13:05Z</time>
      </trkpt>
      <trkpt lat="44.69692" lon="5.96685">
        <ele>1532.193</ele>
        <time>2020-08-26T09:13:18Z</time>
      </trkpt>
      <trkpt lat="44.69693" lon="5.96682">
        <ele>1531.823</ele>
        <time>2020-08-26T09:13:20Z</time>
      </trkpt>
      <trkpt lat="44.69696" lon="5.9666">
        <ele>1530.374</ele>
        <time>2020-08-26T09:13:32Z</time>
      </trkpt>
      <trkpt lat="44.69699" lon="5.96644">
        <ele>1529.013</ele>
        <time>2020-08-26T09:13:41Z</time>
      </trkpt>
      <trkpt lat="44.69699" lon="5.96619">
        <ele>1527.995</ele>
        <time>2020-08-26T09:13:56Z</time>
      </trkpt>
      <trkpt lat="44.69699" lon="5.96604">
        <ele>1527.454</ele>
        <time>2020-08-26T09:14:05Z</time>
      </trkpt>
      <trkpt lat="44.69699" lon="5.96593">
        <ele>1527.043</ele>
        <time>2020-08-26T09:14:12Z</time>
      </trkpt>
      <trkpt lat="44.69699" lon="5.96571">
        <ele>1526.564</ele>
        <time>2020-08-26T09:14:26Z</time>
      </trkpt>
      <trkpt lat="44.69701" lon="5.96548">
        <ele>1525.977</ele>
        <time>2020-08-26T09:14:42Z</time>
      </trkpt>
      <trkpt lat="44.69702" lon="5.96537">
        <ele>1525.481</ele>
        <time>2020-08-26T09:14:51Z</time>
      </trkpt>
      <trkpt lat="44.69701" lon="5.96517">
        <ele>1524.876</ele>
        <time>2020-08-26T09:15:05Z</time>
      </trkpt>
      <trkpt lat="44.69698" lon="5.96511">
        <ele>1524.965</ele>
        <time>2020-08-26T09:15:10Z</time>
      </trkpt>
      <trkpt lat="44.69694" lon="5.96493">
        <ele>1524.815</ele>
        <time>2020-08-26T09:15:32Z</time>
      </trkpt>
      <trkpt lat="44.69697" lon="5.96495">
        <ele>1524.535</ele>
        <time>2020-08-26T09:15:48Z</time>
      </trkpt>
      <trkpt lat="44.69696" lon="5.96496">
        <ele>1524.662</ele>
        <time>2020-08-26T09:15:54Z</time>
      </trkpt>
      <trkpt lat="44.69694" lon="5.96492">
        <ele>1524.81</ele>
        <time>2020-08-26T09:16:12Z</time>
      </trkpt>
      <trkpt lat="44.69685" lon="5.9649">
        <ele>1526.062</ele>
        <time>2020-08-26T09:16:27Z</time>
      </trkpt>
      <trkpt lat="44.69687" lon="5.96492">
        <ele>1525.879</ele>
        <time>2020-08-26T09:17:03Z</time>
      </trkpt>
    </trkseg>
  </trk>
</gpx>